Wetterdaten: Sonntag, 26.07.2015
Datum Zeit Temp. Aussen +5cm Feuchte Auss BlattFeu 1 Luftdruck Regen Sonnenschein Regendauer Solar Windben
26.07.2015 00:00 12,7 C 10,6 C 87 % 0 lf 1015,7 hPa 0,0 l/m 0 min 0 min 0 W/m 20,9 km/h (4 Bft)
26.07.2015 00:02 12,7 C 10,6 C 87 % 0 lf 1015,6 hPa 0,0 l/m 0 min 0 min 0 W/m 16,7 km/h (3 Bft)
26.07.2015 00:05 12,7 C 10,6 C 86 % 0 lf 1015,7 hPa 0,0 l/m 0 min 0 min 0 W/m 20,9 km/h (4 Bft)
26.07.2015 00:08 12,7 C 10,6 C 86 % 0 lf 1015,8 hPa 0,0 l/m 0 min 0 min 0 W/m 20,9 km/h (4 Bft)
26.07.2015 00:10 12,7 C 10,6 C 86 % 0 lf 1015,7 hPa 0,0 l/m 0 min 0 min 0 W/m 20,9 km/h (4 Bft)
26.07.2015 00:12 12,7 C 10,6 C 86 % 0 lf 1015,7 hPa 0,0 l/m 0 min 0 min 0 W/m 16,7 km/h (3 Bft)
26.07.2015 00:14 12,7 C 10,6 C 86 % 0 lf 1015,7 hPa 0,0 l/m 0 min 0 min 0 W/m 18,8 km/h (3 Bft)
26.07.2015 00:16 12,7 C 10,0 C 86 % 0 lf 1015,8 hPa 0,0 l/m 0 min 0 min 0 W/m 18,8 km/h (3 Bft)
26.07.2015 00:18 12,7 C 10,0 C 86 % 0 lf 1015,8 hPa 0,0 l/m 0 min 0 min 0 W/m 18,8 km/h (3 Bft)
26.07.2015 00:20 12,7 C 10,0 C 85 % 0 lf 1015,8 hPa 0,0 l/m 0 min 0 min 0 W/m 14,6 km/h (3 Bft)
26.07.2015 00:22 12,6 C 10,0 C 85 % 0 lf 1015,8 hPa 0,0 l/m 0 min 0 min 0 W/m 20,9 km/h (4 Bft)
26.07.2015 00:24 12,6 C 10,0 C 85 % 0 lf 1015,9 hPa 0,0 l/m 0 min 0 min 0 W/m 18,8 km/h (3 Bft)
26.07.2015 00:26 12,6 C 10,0 C 85 % 0 lf 1015,8 hPa 0,0 l/m 0 min 0 min 0 W/m 18,8 km/h (3 Bft)
26.07.2015 00:28 12,6 C 10,0 C 85 % 0 lf 1015,8 hPa 0,0 l/m 0 min 0 min 0 W/m 20,9 km/h (4 Bft)
26.07.2015 00:30 12,6 C 10,0 C 85 % 0 lf 1015,9 hPa 0,0 l/m 0 min 0 min 0 W/m 23,0 km/h (4 Bft)
26.07.2015 00:32 12,5 C 10,0 C 85 % 0 lf 1015,9 hPa 0,0 l/m 0 min 0 min 0 W/m 20,9 km/h (4 Bft)
26.07.2015 00:34 12,5 C 10,0 C 85 % 0 lf 1015,9 hPa 0,0 l/m 0 min 0 min 0 W/m 18,8 km/h (3 Bft)
26.07.2015 00:36 12,5 C 10,0 C 85 % 0 lf 1016,0 hPa 0,0 l/m 0 min 0 min 0 W/m 16,7 km/h (3 Bft)
26.07.2015 00:38 12,4 C 10,0 C 85 % 0 lf 1016,0 hPa 0,0 l/m 0 min 0 min 0 W/m 20,9 km/h (4 Bft)
26.07.2015 00:40 12,4 C 10,0 C 85 % 0 lf 1016,0 hPa 0,0 l/m 0 min 0 min 0 W/m 16,7 km/h (3 Bft)
26.07.2015 00:42 12,4 C 10,0 C 85 % 0 lf 1016,0 hPa 0,0 l/m 0 min 0 min 0 W/m 20,9 km/h (4 Bft)
26.07.2015 00:44 12,4 C 10,0 C 85 % 0 lf 1016,1 hPa 0,0 l/m 0 min 0 min 0 W/m 12,6 km/h (3 Bft)
26.07.2015 00:46 12,3 C 10,0 C 86 % 0 lf 1016,0 hPa 0,0 l/m 0 min 0 min 0 W/m 12,6 km/h (3 Bft)
26.07.2015 00:48 12,3 C 10,0 C 86 % 0 lf 1016,1 hPa 0,0 l/m 0 min 0 min 0 W/m 16,7 km/h (3 Bft)
26.07.2015 00:50 12,3 C 10,0 C 86 % 0 lf 1016,1 hPa 0,0 l/m 0 min 0 min 0 W/m 20,9 km/h (4 Bft)
26.07.2015 00:52 12,3 C 10,0 C 86 % 0 lf 1016,1 hPa 0,0 l/m 0 min 0 min 0 W/m 14,6 km/h (3 Bft)
26.07.2015 00:54 12,2 C 10,0 C 86 % 0 lf 1016,1 hPa 0,0 l/m 0 min 0 min 0 W/m 20,9 km/h (4 Bft)
26.07.2015 00:56 12,2 C 10,0 C 86 % 0 lf 1016,1 hPa 0,0 l/m 0 min 0 min 0 W/m 12,6 km/h (3 Bft)
26.07.2015 00:58 12,2 C 10,0 C 86 % 0 lf 1016,0 hPa 0,0 l/m 0 min 0 min 0 W/m 14,6 km/h (3 Bft)
26.07.2015 01:00 12,2 C 10,0 C 86 % 0 lf 1016,0 hPa 0,0 l/m 0 min 0 min 0 W/m 18,8 km/h (3 Bft)
26.07.2015 01:02 12,1 C 10,0 C 86 % 0 lf 1016,1 hPa 0,0 l/m 0 min 0 min 0 W/m 10,5 km/h (2 Bft)
26.07.2015 01:04 12,1 C 10,0 C 86 % 0 lf 1016,1 hPa 0,0 l/m 0 min 0 min 0 W/m 14,6 km/h (3 Bft)
26.07.2015 01:06 12,1 C 10,0 C 86 % 0 lf 1016,1 hPa 0,0 l/m 0 min 0 min 0 W/m 14,6 km/h (3 Bft)
26.07.2015 01:08 12,1 C 9,4 C 86 % 0 lf 1016,1 hPa 0,0 l/m 0 min 0 min 0 W/m 12,6 km/h (3 Bft)
26.07.2015 01:10 12,0 C 10,0 C 86 % 0 lf 1016,2 hPa 0,0 l/m 0 min 0 min 0 W/m 10,5 km/h (2 Bft)
26.07.2015 01:12 12,0 C 10,0 C 86 % 0 lf 1016,1 hPa 0,0 l/m 0 min 0 min 0 W/m 16,7 km/h (3 Bft)
26.07.2015 01:14 11,9 C 10,0 C 86 % 0 lf 1016,1 hPa 0,0 l/m 0 min 0 min 0 W/m 16,7 km/h (3 Bft)
26.07.2015 01:16 11,9 C 10,0 C 86 % 0 lf 1016,1 hPa 0,0 l/m 0 min 0 min 0 W/m 16,7 km/h (3 Bft)
26.07.2015 01:18 11,9 C 9,4 C 86 % 0 lf 1016,2 hPa 0,0 l/m 0 min 0 min 0 W/m 12,6 km/h (3 Bft)
26.07.2015 01:20 11,9 C 9,4 C 86 % 0 lf 1016,2 hPa 0,0 l/m 0 min 0 min 0 W/m 12,6 km/h (3 Bft)
26.07.2015 01:22 11,9 C 9,4 C 87 % 0 lf 1016,2 hPa 0,0 l/m 0 min 0 min 0 W/m 12,6 km/h (3 Bft)
26.07.2015 01:24 11,8 C 9,4 C 87 % 0 lf 1016,2 hPa 0,0 l/m 0 min 0 min 0 W/m 10,5 km/h (2 Bft)
26.07.2015 01:26 11,8 C 9,4 C 87 % 0 lf 1016,2 hPa 0,0 l/m 0 min 0 min 0 W/m 12,6 km/h (3 Bft)
26.07.2015 01:28 11,8 C 9,4 C 87 % 0 lf 1016,2 hPa 0,0 l/m 0 min 0 min 0 W/m 10,5 km/h (2 Bft)
26.07.2015 01:30 11,8 C 9,4 C 87 % 0 lf 1016,1 hPa 0,0 l/m 0 min 0 min 0 W/m 12,6 km/h (3 Bft)
26.07.2015 01:32 11,7 C 9,4 C 87 % 0 lf 1016,2 hPa 0,0 l/m 0 min 0 min 0 W/m 10,5 km/h (2 Bft)
26.07.2015 01:34 11,7 C 9,4 C 87 % 0 lf 1016,1 hPa 0,0 l/m 0 min 0 min 0 W/m 10,5 km/h (2 Bft)
26.07.2015 01:36 11,7 C 9,4 C 87 % 0 lf 1016,1 hPa 0,0 l/m 0 min 0 min 0 W/m 14,6 km/h (3 Bft)
26.07.2015 01:38 11,7 C 9,4 C 87 % 0 lf 1016,2 hPa 0,0 l/m 0 min 0 min 0 W/m 12,6 km/h (3 Bft)
26.07.2015 01:40 11,6 C 9,4 C 87 % 0 lf 1016,1 hPa 0,0 l/m 0 min 0 min 0 W/m 10,5 km/h (2 Bft)
26.07.2015 01:42 11,6 C 9,4 C 87 % 0 lf 1016,2 hPa 0,0 l/m 0 min 0 min 0 W/m 10,5 km/h (2 Bft)
26.07.2015 01:44 11,6 C 9,4 C 88 % 0 lf 1016,2 hPa 0,0 l/m 0 min 0 min 0 W/m 10,5 km/h (2 Bft)
26.07.2015 01:46 11,6 C 9,4 C 88 % 0 lf 1016,2 hPa 0,0 l/m 0 min 0 min 0 W/m 10,5 km/h (2 Bft)
26.07.2015 01:48 11,5 C 9,4 C 88 % 0 lf 1016,2 hPa 0,0 l/m 0 min 0 min 0 W/m 12,6 km/h (3 Bft)
26.07.2015 01:50 11,5 C 9,4 C 88 % 0 lf 1016,2 hPa 0,0 l/m 0 min 0 min 0 W/m 16,7 km/h (3 Bft)
26.07.2015 01:52 11,5 C 9,4 C 88 % 0 lf 1016,3 hPa 0,0 l/m 0 min 0 min 0 W/m 12,6 km/h (3 Bft)
26.07.2015 01:54 11,4 C 9,4 C 88 % 0 lf 1016,3 hPa 0,0 l/m 0 min 0 min 0 W/m 10,5 km/h (2 Bft)
26.07.2015 01:56 11,4 C 9,4 C 88 % 0 lf 1016,2 hPa 0,0 l/m 0 min 0 min 0 W/m 12,6 km/h (3 Bft)
26.07.2015 01:58 11,4 C 9,4 C 88 % 0 lf 1016,2 hPa 0,0 l/m 0 min 0 min 0 W/m 10,5 km/h (2 Bft)
26.07.2015 02:00 11,4 C 9,4 C 88 % 0 lf 1016,2 hPa 0,0 l/m 0 min 0 min 0 W/m 12,6 km/h (3 Bft)
26.07.2015 02:02 11,3 C 9,4 C 88 % 0 lf 1016,1 hPa 0,0 l/m 0 min 0 min 0 W/m 14,6 km/h (3 Bft)
26.07.2015 02:04 11,3 C 9,4 C 88 % 0 lf 1016,1 hPa 0,0 l/m 0 min 0 min 0 W/m 14,6 km/h (3 Bft)
26.07.2015 02:06 11,3 C 9,4 C 89 % 0 lf 1016,1 hPa 0,0 l/m 0 min 0 min 0 W/m 12,6 km/h (3 Bft)
26.07.2015 02:08 11,3 C 9,4 C 89 % 0 lf 1016,2 hPa 0,0 l/m 0 min 0 min 0 W/m 12,6 km/h (3 Bft)
26.07.2015 02:10 11,3 C 9,4 C 89 % 0 lf 1016,2 hPa 0,0 l/m 0 min 0 min 0 W/m 10,5 km/h (2 Bft)
26.07.2015 02:12 11,2 C 9,4 C 89 % 0 lf 1016,1 hPa 0,0 l/m 0 min 0 min 0 W/m 8,4 km/h (2 Bft)
26.07.2015 02:14 11,2 C 9,4 C 89 % 1 lf 1016,1 hPa 0,0 l/m 0 min 0 min 0 W/m 12,6 km/h (3 Bft)
26.07.2015 02:16 11,2 C 9,4 C 89 % 1 lf 1016,1 hPa 0,0 l/m 0 min 0 min 0 W/m 12,6 km/h (3 Bft)
26.07.2015 02:18 11,2 C 9,4 C 89 % 1 lf 1016,1 hPa 0,0 l/m 0 min 0 min 0 W/m 10,5 km/h (2 Bft)
26.07.2015 02:20 11,1 C 9,4 C 89 % 1 lf 1016,2 hPa 0,0 l/m 0 min 0 min 0 W/m 12,6 km/h (3 Bft)
26.07.2015 02:22 11,1 C 9,4 C 89 % 1 lf 1016,1 hPa 0,0 l/m 0 min 0 min 0 W/m 10,5 km/h (2 Bft)
26.07.2015 02:24 11,1 C 9,4 C 89 % 1 lf 1016,0 hPa 0,0 l/m 0 min 0 min 0 W/m 10,5 km/h (2 Bft)
26.07.2015 02:26 11,1 C 9,4 C 89 % 1 lf 1016,1 hPa 0,0 l/m 0 min 0 min 0 W/m 10,5 km/h (2 Bft)
26.07.2015 02:28 11,1 C 9,4 C 89 % 1 lf 1016,1 hPa 0,0 l/m 0 min 0 min 0 W/m 8,4 km/h (2 Bft)
26.07.2015 02:30 11,0 C 9,4 C 89 % 1 lf 1016,1 hPa 0,0 l/m 0 min 0 min 0 W/m 10,5 km/h (2 Bft)
26.07.2015 02:32 11,0 C 9,4 C 89 % 1 lf 1016,1 hPa 0,0 l/m 0 min 0 min 0 W/m 10,5 km/h (2 Bft)
26.07.2015 02:34 10,9 C 9,4 C 89 % 1 lf 1016,1 hPa 0,0 l/m 0 min 0 min 0 W/m 8,4 km/h (2 Bft)
26.07.2015 02:36 10,9 C 8,9 C 90 % 1 lf 1016,1 hPa 0,0 l/m 0 min 0 min 0 W/m 8,4 km/h (2 Bft)
26.07.2015 02:38 10,9 C 9,4 C 90 % 1 lf 1016,1 hPa 0,0 l/m 0 min 0 min 0 W/m 10,5 km/h (2 Bft)
26.07.2015 02:40 10,9 C 9,4 C 89 % 1 lf 1016,1 hPa 0,0 l/m 0 min 0 min 0 W/m 10,5 km/h (2 Bft)
26.07.2015 02:42 10,8 C 8,9 C 89 % 1 lf 1016,0 hPa 0,0 l/m 0 min 0 min 0 W/m 10,5 km/h (2 Bft)
26.07.2015 02:44 10,8 C 8,9 C 90 % 1 lf 1015,9 hPa 0,0 l/m 0 min 0 min 0 W/m 14,6 km/h (3 Bft)
26.07.2015 02:46 10,8 C 8,9 C 90 % 1 lf 1015,9 hPa 0,0 l/m 0 min 0 min 0 W/m 10,5 km/h (2 Bft)
26.07.2015 02:48 10,8 C 8,9 C 90 % 1 lf 1015,9 hPa 0,0 l/m 0 min 0 min 0 W/m 10,5 km/h (2 Bft)
26.07.2015 02:50 10,8 C 8,9 C 90 % 1 lf 1015,8 hPa 0,0 l/m 0 min 0 min 0 W/m 10,5 km/h (2 Bft)
26.07.2015 02:52 10,7 C 8,9 C 90 % 1 lf 1015,9 hPa 0,0 l/m 0 min 0 min 0 W/m 10,5 km/h (2 Bft)
26.07.2015 02:54 10,7 C 8,9 C 90 % 1 lf 1015,9 hPa 0,0 l/m 0 min 0 min 0 W/m 10,5 km/h (2 Bft)
26.07.2015 02:56 10,7 C 8,9 C 90 % 1 lf 1015,8 hPa 0,0 l/m 0 min 0 min 0 W/m 12,6 km/h (3 Bft)
26.07.2015 02:58 10,6 C 8,9 C 90 % 1 lf 1015,8 hPa 0,0 l/m 0 min 0 min 0 W/m 10,5 km/h (2 Bft)
26.07.2015 03:00 10,6 C 8,9 C 90 % 1 lf 1015,8 hPa 0,0 l/m 0 min 0 min 0 W/m 10,5 km/h (2 Bft)
26.07.2015 03:02 10,6 C 8,9 C 90 % 1 lf 1015,8 hPa 0,0 l/m 0 min 0 min 0 W/m 12,6 km/h (3 Bft)
26.07.2015 03:04 10,6 C 8,9 C 90 % 1 lf 1015,8 hPa 0,0 l/m 0 min 0 min 0 W/m 8,4 km/h (2 Bft)
26.07.2015 03:06 10,6 C 8,9 C 90 % 1 lf 1015,8 hPa 0,0 l/m 0 min 0 min 0 W/m 10,5 km/h (2 Bft)
26.07.2015 03:08 10,5 C 8,9 C 90 % 1 lf 1015,8 hPa 0,0 l/m 0 min 0 min 0 W/m 8,4 km/h (2 Bft)
26.07.2015 03:10 10,5 C 8,9 C 90 % 1 lf 1015,8 hPa 0,0 l/m 0 min 0 min 0 W/m 10,5 km/h (2 Bft)
26.07.2015 03:12 10,5 C 8,9 C 91 % 1 lf 1015,8 hPa 0,0 l/m 0 min 0 min 0 W/m 10,5 km/h (2 Bft)
26.07.2015 03:14 10,4 C 8,9 C 91 % 1 lf 1015,8 hPa 0,0 l/m 0 min 0 min 0 W/m 10,5 km/h (2 Bft)
26.07.2015 03:16 10,4 C 8,9 C 91 % 1 lf 1015,8 hPa 0,0 l/m 0 min 0 min 0 W/m 12,6 km/h (3 Bft)
26.07.2015 03:18 10,4 C 8,9 C 91 % 1 lf 1015,8 hPa 0,0 l/m 0 min 0 min 0 W/m 12,6 km/h (3 Bft)
26.07.2015 03:20 10,4 C 8,9 C 91 % 1 lf 1015,8 hPa 0,0 l/m 0 min 0 min 0 W/m 12,6 km/h (3 Bft)
26.07.2015 03:22 10,4 C 8,9 C 91 % 1 lf 1015,8 hPa 0,0 l/m 0 min 0 min 0 W/m 14,6 km/h (3 Bft)
26.07.2015 03:24 10,4 C 8,9 C 91 % 1 lf 1015,8 hPa 0,0 l/m 0 min 0 min 0 W/m 10,5 km/h (2 Bft)
26.07.2015 03:26 10,4 C 8,9 C 91 % 1 lf 1015,8 hPa 0,0 l/m 0 min 0 min 0 W/m 10,5 km/h (2 Bft)
26.07.2015 03:28 10,3 C 8,9 C 91 % 1 lf 1015,8 hPa 0,0 l/m 0 min 0 min 0 W/m 12,6 km/h (3 Bft)
26.07.2015 03:30 10,3 C 8,9 C 91 % 1 lf 1015,9 hPa 0,0 l/m 0 min 0 min 0 W/m 16,7 km/h (3 Bft)
26.07.2015 03:32 10,3 C 8,9 C 91 % 1 lf 1015,8 hPa 0,0 l/m 0 min 0 min 0 W/m 12,6 km/h (3 Bft)
26.07.2015 03:34 10,3 C 8,9 C 91 % 1 lf 1016,0 hPa 0,0 l/m 0 min 0 min 0 W/m 10,5 km/h (2 Bft)
26.07.2015 03:36 10,3 C 8,9 C 91 % 1 lf 1016,0 hPa 0,0 l/m 0 min 0 min 0 W/m 12,6 km/h (3 Bft)
26.07.2015 03:38 10,3 C 8,9 C 92 % 1 lf 1015,9 hPa 0,0 l/m 0 min 0 min 0 W/m 10,5 km/h (2 Bft)
26.07.2015 03:40 10,3 C 8,9 C 92 % 1 lf 1015,9 hPa 0,0 l/m 0 min 0 min 0 W/m 14,6 km/h (3 Bft)
26.07.2015 03:42 10,3 C 8,9 C 92 % 1 lf 1015,8 hPa 0,0 l/m 0 min 0 min 0 W/m 14,6 km/h (3 Bft)
26.07.2015 03:44 10,3 C 8,9 C 92 % 2 lf 1015,8 hPa 0,0 l/m 0 min 0 min 0 W/m 12,6 km/h (3 Bft)
26.07.2015 03:46 10,3 C 8,9 C 92 % 2 lf 1015,9 hPa 0,0 l/m 0 min 0 min 0 W/m 12,6 km/h (3 Bft)
26.07.2015 03:48 10,3 C 8,9 C 92 % 2 lf 1015,8 hPa 0,0 l/m 0 min 0 min 0 W/m 10,5 km/h (2 Bft)
26.07.2015 03:50 10,2 C 8,9 C 92 % 2 lf 1015,8 hPa 0,0 l/m 0 min 0 min 0 W/m 12,6 km/h (3 Bft)
26.07.2015 03:52 10,2 C 8,9 C 92 % 2 lf 1015,7 hPa 0,0 l/m 0 min 0 min 0 W/m 8,4 km/h (2 Bft)
26.07.2015 03:54 10,2 C 8,9 C 92 % 2 lf 1015,8 hPa 0,0 l/m 0 min 0 min 0 W/m 10,5 km/h (2 Bft)
26.07.2015 03:56 10,2 C 8,9 C 92 % 2 lf 1015,8 hPa 0,0 l/m 0 min 0 min 0 W/m 10,5 km/h (2 Bft)
26.07.2015 03:58 10,2 C 8,9 C 92 % 2 lf 1015,8 hPa 0,0 l/m 0 min 0 min 0 W/m 8,4 km/h (2 Bft)
26.07.2015 04:00 10,2 C 8,9 C 92 % 2 lf 1015,8 hPa 0,0 l/m 0 min 0 min 0 W/m 10,5 km/h (2 Bft)
26.07.2015 04:02 10,2 C 8,9 C 92 % 2 lf 1015,9 hPa 0,0 l/m 0 min 0 min 0 W/m 8,4 km/h (2 Bft)
26.07.2015 04:04 10,2 C 8,9 C 92 % 2 lf 1015,8 hPa 0,0 l/m 0 min 0 min 0 W/m 10,5 km/h (2 Bft)
26.07.2015 04:06 10,2 C 8,9 C 92 % 2 lf 1015,9 hPa 0,0 l/m 0 min 0 min 0 W/m 12,6 km/h (3 Bft)
26.07.2015 04:08 10,2 C 8,9 C 92 % 2 lf 1015,9 hPa 0,0 l/m 0 min 0 min 0 W/m 12,6 km/h (3 Bft)
26.07.2015 04:10 10,2 C 8,9 C 92 % 2 lf 1015,8 hPa 0,0 l/m 0 min 0 min 0 W/m 8,4 km/h (2 Bft)
26.07.2015 04:12 10,2 C 8,9 C 93 % 2 lf 1015,8 hPa 0,0 l/m 0 min 0 min 0 W/m 12,6 km/h (3 Bft)
26.07.2015 04:14 10,1 C 8,9 C 93 % 3 lf 1015,7 hPa 0,0 l/m 0 min 0 min 0 W/m 12,6 km/h (3 Bft)
26.07.2015 04:16 10,1 C 8,9 C 93 % 3 lf 1015,7 hPa 0,0 l/m 0 min 0 min 0 W/m 8,4 km/h (2 Bft)
26.07.2015 04:18 10,1 C 8,9 C 93 % 3 lf 1015,6 hPa 0,0 l/m 0 min 0 min 0 W/m 8,4 km/h (2 Bft)
26.07.2015 04:20 10,1 C 8,9 C 93 % 3 lf 1015,6 hPa 0,0 l/m 0 min 0 min 0 W/m 6,3 km/h (2 Bft)
26.07.2015 04:22 10,1 C 8,9 C 93 % 3 lf 1015,6 hPa 0,0 l/m 0 min 0 min 0 W/m 8,4 km/h (2 Bft)
26.07.2015 04:24 10,1 C 8,9 C 93 % 3 lf 1015,6 hPa 0,0 l/m 0 min 0 min 0 W/m 10,5 km/h (2 Bft)
26.07.2015 04:26 10,1 C 8,9 C 93 % 3 lf 1015,6 hPa 0,0 l/m 0 min 0 min 0 W/m 6,3 km/h (2 Bft)
26.07.2015 04:28 10,1 C 8,9 C 93 % 3 lf 1015,7 hPa 0,0 l/m 0 min 0 min 0 W/m 8,4 km/h (2 Bft)
26.07.2015 04:30 10,1 C 8,9 C 93 % 3 lf 1015,7 hPa 0,0 l/m 0 min 0 min 0 W/m 12,6 km/h (3 Bft)
26.07.2015 04:32 10,1 C 8,9 C 93 % 3 lf 1015,7 hPa 0,0 l/m 0 min 0 min 0 W/m 8,4 km/h (2 Bft)
26.07.2015 04:34 10,0 C 8,9 C 93 % 3 lf 1015,6 hPa 0,0 l/m 0 min 0 min 0 W/m 10,5 km/h (2 Bft)
26.07.2015 04:36 10,0 C 8,9 C 93 % 3 lf 1015,6 hPa 0,0 l/m 0 min 0 min 0 W/m 12,6 km/h (3 Bft)
26.07.2015 04:38 10,0 C 8,9 C 93 % 4 lf 1015,6 hPa 0,0 l/m 0 min 0 min 0 W/m 10,5 km/h (2 Bft)
26.07.2015 04:40 10,0 C 8,9 C 93 % 4 lf 1015,6 hPa 0,0 l/m 0 min 0 min 0 W/m 12,6 km/h (3 Bft)
26.07.2015 04:42 10,0 C 8,9 C 93 % 4 lf 1015,6 hPa 0,0 l/m 0 min 0 min 0 W/m 10,5 km/h (2 Bft)
26.07.2015 04:44 10,0 C 8,9 C 93 % 4 lf 1015,7 hPa 0,0 l/m 0 min 0 min 0 W/m 10,5 km/h (2 Bft)
26.07.2015 04:46 10,0 C 8,9 C 93 % 4 lf 1015,6 hPa 0,0 l/m 0 min 0 min 0 W/m 10,5 km/h (2 Bft)
26.07.2015 04:48 10,0 C 8,9 C 93 % 4 lf 1015,7 hPa 0,0 l/m 0 min 0 min 0 W/m 10,5 km/h (2 Bft)
26.07.2015 04:50 9,9 C 8,9 C 93 % 4 lf 1015,7 hPa 0,0 l/m 0 min 0 min 0 W/m 8,4 km/h (2 Bft)
26.07.2015 04:52 9,9 C 8,9 C 93 % 4 lf 1015,9 hPa 0,0 l/m 0 min 0 min 0 W/m 14,6 km/h (3 Bft)
26.07.2015 04:54 9,9 C 8,9 C 93 % 4 lf 1015,9 hPa 0,0 l/m 0 min 0 min 0 W/m 10,5 km/h (2 Bft)
26.07.2015 04:56 9,9 C 8,9 C 93 % 4 lf 1015,8 hPa 0,0 l/m 0 min 0 min 0 W/m 8,4 km/h (2 Bft)
26.07.2015 04:58 9,9 C 8,9 C 93 % 4 lf 1015,9 hPa 0,0 l/m 0 min 0 min 0 W/m 10,5 km/h (2 Bft)
26.07.2015 05:00 9,9 C 8,9 C 94 % 4 lf 1015,9 hPa 0,0 l/m 0 min 0 min 0 W/m 8,4 km/h (2 Bft)
26.07.2015 05:02 9,9 C 8,9 C 94 % 5 lf 1015,9 hPa 0,0 l/m 0 min 0 min 0 W/m 12,6 km/h (3 Bft)
26.07.2015 05:04 9,9 C 8,9 C 94 % 5 lf 1015,9 hPa 0,0 l/m 0 min 0 min 0 W/m 8,4 km/h (2 Bft)
26.07.2015 05:06 9,9 C 8,9 C 94 % 6 lf 1015,9 hPa 0,0 l/m 0 min 0 min 0 W/m 10,5 km/h (2 Bft)
26.07.2015 05:08 9,9 C 8,9 C 94 % 7 lf 1015,9 hPa 0,0 l/m 0 min 0 min 0 W/m 10,5 km/h (2 Bft)
26.07.2015 05:10 9,9 C 8,9 C 94 % 7 lf 1015,9 hPa 0,0 l/m 0 min 0 min 0 W/m 6,3 km/h (2 Bft)
26.07.2015 05:12 9,8 C 8,9 C 94 % 7 lf 1015,9 hPa 0,0 l/m 0 min 0 min 0 W/m 8,4 km/h (2 Bft)
26.07.2015 05:14 9,8 C 8,9 C 94 % 8 lf 1015,9 hPa 0,0 l/m 0 min 0 min 0 W/m 10,5 km/h (2 Bft)
26.07.2015 05:16 9,8 C 8,9 C 94 % 8 lf 1015,9 hPa 0,0 l/m 0 min 0 min 0 W/m 10,5 km/h (2 Bft)
26.07.2015 05:18 9,8 C 8,9 C 94 % 9 lf 1015,9 hPa 0,0 l/m 0 min 0 min 0 W/m 10,5 km/h (2 Bft)
26.07.2015 05:20 9,8 C 8,9 C 94 % 9 lf 1015,9 hPa 0,0 l/m 0 min 0 min 0 W/m 6,3 km/h (2 Bft)
26.07.2015 05:22 9,8 C 8,9 C 94 % 9 lf 1015,9 hPa 0,0 l/m 0 min 0 min 0 W/m 8,4 km/h (2 Bft)
26.07.2015 05:24 9,8 C 8,9 C 94 % 10 lf 1015,9 hPa 0,0 l/m 0 min 0 min 0 W/m 10,5 km/h (2 Bft)
26.07.2015 05:26 9,8 C 8,9 C 94 % 10 lf 1015,9 hPa 0,0 l/m 0 min 0 min 0 W/m 6,3 km/h (2 Bft)
26.07.2015 05:28 9,8 C 8,9 C 94 % 10 lf 1015,9 hPa 0,0 l/m 0 min 0 min 0 W/m 8,4 km/h (2 Bft)
26.07.2015 05:30 9,8 C 8,9 C 94 % 11 lf 1015,9 hPa 0,0 l/m 0 min 0 min 0 W/m 6,3 km/h (2 Bft)
26.07.2015 05:32 9,8 C 8,9 C 94 % 11 lf 1016,1 hPa 0,0 l/m 0 min 0 min 0 W/m 6,3 km/h (2 Bft)
26.07.2015 05:34 9,8 C 8,9 C 94 % 12 lf 1016,0 hPa 0,0 l/m 0 min 0 min 0 W/m 8,4 km/h (2 Bft)
26.07.2015 05:36 9,8 C 8,9 C 94 % 12 lf 1015,9 hPa 0,0 l/m 0 min 0 min 0 W/m 8,4 km/h (2 Bft)
26.07.2015 05:38 9,7 C 8,9 C 94 % 12 lf 1015,9 hPa 0,0 l/m 0 min 0 min 2 W/m 8,4 km/h (2 Bft)
26.07.2015 05:40 9,7 C 8,9 C 94 % 13 lf 1015,9 hPa 0,0 l/m 0 min 0 min 5 W/m 8,4 km/h (2 Bft)
26.07.2015 05:42 9,7 C 8,9 C 94 % 13 lf 1015,9 hPa 0,0 l/m 0 min 0 min 5 W/m 4,2 km/h (1 Bft)
26.07.2015 05:44 9,7 C 8,9 C 94 % 13 lf 1015,8 hPa 0,0 l/m 0 min 0 min 5 W/m 6,3 km/h (2 Bft)
26.07.2015 05:46 9,7 C 8,9 C 94 % 14 lf 1015,8 hPa 0,0 l/m 0 min 0 min 6 W/m 6,3 km/h (2 Bft)
26.07.2015 05:48 9,7 C 8,3 C 94 % 14 lf 1015,8 hPa 0,0 l/m 0 min 0 min 7 W/m 6,3 km/h (2 Bft)
26.07.2015 05:50 9,7 C 8,3 C 94 % 14 lf 1015,8 hPa 0,0 l/m 0 min 0 min 7 W/m 6,3 km/h (2 Bft)
26.07.2015 05:52 9,7 C 8,3 C 94 % 15 lf 1015,8 hPa 0,0 l/m 0 min 0 min 7 W/m 6,3 km/h (2 Bft)
26.07.2015 05:54 9,7 C 8,3 C 94 % 15 lf 1015,8 hPa 0,0 l/m 0 min 0 min 9 W/m 6,3 km/h (2 Bft)
26.07.2015 05:56 9,7 C 8,3 C 94 % 15 lf 1015,7 hPa 0,0 l/m 0 min 0 min 9 W/m 4,2 km/h (1 Bft)
26.07.2015 05:58 9,7 C 8,3 C 94 % 15 lf 1015,7 hPa 0,0 l/m 0 min 0 min 11 W/m 4,2 km/h (1 Bft)
26.07.2015 06:00 9,6 C 8,3 C 94 % 15 lf 1015,7 hPa 0,0 l/m 0 min 0 min 12 W/m 6,3 km/h (2 Bft)
26.07.2015 06:02 9,6 C 8,3 C 94 % 15 lf 1015,8 hPa 0,0 l/m 0 min 0 min 14 W/m 4,2 km/h (1 Bft)
26.07.2015 06:05 9,6 C 8,3 C 94 % 15 lf 1015,8 hPa 0,0 l/m 0 min 0 min 18 W/m 8,4 km/h (2 Bft)
26.07.2015 06:10 9,6 C 8,3 C 94 % 15 lf 1015,7 hPa 0,0 l/m 2 min 0 min 20 W/m 8,4 km/h (2 Bft)
26.07.2015 06:12 9,6 C 8,3 C 94 % 15 lf 1015,7 hPa 0,0 l/m 2 min 0 min 25 W/m 6,3 km/h (2 Bft)
26.07.2015 06:14 9,6 C 8,3 C 94 % 15 lf 1015,7 hPa 0,0 l/m 2 min 0 min 28 W/m 6,3 km/h (2 Bft)
26.07.2015 06:16 9,6 C 8,3 C 94 % 15 lf 1015,7 hPa 0,0 l/m 2 min 0 min 30 W/m 6,3 km/h (2 Bft)
26.07.2015 06:18 9,6 C 8,3 C 94 % 15 lf 1015,7 hPa 0,0 l/m 2 min 0 min 33 W/m 4,2 km/h (1 Bft)
26.07.2015 06:20 9,6 C 8,3 C 94 % 15 lf 1015,7 hPa 0,0 l/m 2 min 0 min 35 W/m 6,3 km/h (2 Bft)
26.07.2015 06:22 9,6 C 8,3 C 94 % 15 lf 1015,7 hPa 0,0 l/m 2 min 0 min 36 W/m 6,3 km/h (2 Bft)
26.07.2015 06:24 9,6 C 8,3 C 94 % 15 lf 1015,7 hPa 0,0 l/m 0 min 0 min 29 W/m 6,3 km/h (2 Bft)
26.07.2015 06:26 9,6 C 8,9 C 94 % 15 lf 1015,8 hPa 0,0 l/m 0 min 0 min 31 W/m 6,3 km/h (2 Bft)
26.07.2015 06:28 9,6 C 8,9 C 94 % 15 lf 1015,8 hPa 0,0 l/m 2 min 0 min 39 W/m 6,3 km/h (2 Bft)
26.07.2015 06:30 9,5 C 8,9 C 94 % 15 lf 1015,7 hPa 0,0 l/m 2 min 0 min 47 W/m 4,2 km/h (1 Bft)
26.07.2015 06:32 9,5 C 8,9 C 94 % 15 lf 1015,7 hPa 0,0 l/m 2 min 0 min 55 W/m 4,2 km/h (1 Bft)
26.07.2015 06:34 9,5 C 8,9 C 94 % 15 lf 1015,7 hPa 0,0 l/m 2 min 0 min 56 W/m 6,3 km/h (2 Bft)
26.07.2015 06:36 9,5 C 8,9 C 94 % 15 lf 1015,7 hPa 0,0 l/m 2 min 0 min 59 W/m 4,2 km/h (1 Bft)
26.07.2015 06:38 9,5 C 8,9 C 94 % 15 lf 1015,7 hPa 0,0 l/m 2 min 0 min 65 W/m 6,3 km/h (2 Bft)
26.07.2015 06:40 9,5 C 8,9 C 94 % 15 lf 1015,7 hPa 0,0 l/m 2 min 0 min 64 W/m 4,2 km/h (1 Bft)
26.07.2015 06:42 9,5 C 8,9 C 94 % 15 lf 1015,7 hPa 0,0 l/m 2 min 0 min 68 W/m 8,4 km/h (2 Bft)
26.07.2015 06:44 9,6 C 8,9 C 95 % 15 lf 1015,7 hPa 0,0 l/m 2 min 0 min 74 W/m 6,3 km/h (2 Bft)
26.07.2015 06:46 9,6 C 8,9 C 95 % 15 lf 1015,7 hPa 0,0 l/m 2 min 0 min 81 W/m 6,3 km/h (2 Bft)
26.07.2015 06:48 9,6 C 8,9 C 95 % 15 lf 1015,7 hPa 0,0 l/m 2 min 0 min 84 W/m 6,3 km/h (2 Bft)
26.07.2015 06:50 9,6 C 8,9 C 95 % 15 lf 1015,7 hPa 0,0 l/m 2 min 0 min 87 W/m 6,3 km/h (2 Bft)
26.07.2015 06:52 9,6 C 8,9 C 95 % 15 lf 1015,7 hPa 0,0 l/m 2 min 0 min 91 W/m 6,3 km/h (2 Bft)
26.07.2015 06:54 9,6 C 8,9 C 95 % 15 lf 1015,7 hPa 0,0 l/m 2 min 0 min 95 W/m 8,4 km/h (2 Bft)
26.07.2015 06:56 9,6 C 8,9 C 95 % 15 lf 1015,6 hPa 0,0 l/m 2 min 0 min 99 W/m 8,4 km/h (2 Bft)
26.07.2015 06:58 9,6 C 8,9 C 95 % 15 lf 1015,6 hPa 0,0 l/m 2 min 0 min 103 W/m 6,3 km/h (2 Bft)
26.07.2015 07:00 9,6 C 8,9 C 95 % 15 lf 1015,6 hPa 0,0 l/m 2 min 0 min 108 W/m 8,4 km/h (2 Bft)
26.07.2015 07:02 9,6 C 8,9 C 95 % 15 lf 1015,5 hPa 0,0 l/m 2 min 0 min 113 W/m 6,3 km/h (2 Bft)
26.07.2015 07:04 9,7 C 9,4 C 95 % 15 lf 1015,5 hPa 0,0 l/m 2 min 0 min 119 W/m 6,3 km/h (2 Bft)
26.07.2015 07:06 9,7 C 9,4 C 95 % 15 lf 1015,5 hPa 0,0 l/m 2 min 0 min 124 W/m 4,2 km/h (1 Bft)
26.07.2015 07:08 9,7 C 9,4 C 95 % 15 lf 1015,4 hPa 0,0 l/m 2 min 0 min 129 W/m 6,3 km/h (2 Bft)
26.07.2015 07:10 9,7 C 9,4 C 95 % 15 lf 1015,5 hPa 0,0 l/m 2 min 0 min 127 W/m 10,5 km/h (2 Bft)
26.07.2015 07:12 9,8 C 9,4 C 95 % 15 lf 1015,5 hPa 0,0 l/m 2 min 0 min 132 W/m 10,5 km/h (2 Bft)
26.07.2015 07:14 9,8 C 9,4 C 95 % 15 lf 1015,6 hPa 0,0 l/m 2 min 0 min 139 W/m 10,5 km/h (2 Bft)
26.07.2015 07:16 9,8 C 10,0 C 95 % 15 lf 1015,6 hPa 0,0 l/m 2 min 0 min 146 W/m 12,6 km/h (3 Bft)
26.07.2015 07:18 9,9 C 10,0 C 95 % 15 lf 1015,6 hPa 0,0 l/m 2 min 0 min 151 W/m 6,3 km/h (2 Bft)
26.07.2015 07:20 9,9 C 10,0 C 95 % 15 lf 1015,6 hPa 0,0 l/m 2 min 0 min 156 W/m 8,4 km/h (2 Bft)
26.07.2015 07:22 10,0 C 10,0 C 95 % 15 lf 1015,6 hPa 0,0 l/m 2 min 0 min 161 W/m 10,5 km/h (2 Bft)
26.07.2015 07:24 10,1 C 10,0 C 95 % 14 lf 1015,7 hPa 0,0 l/m 2 min 0 min 167 W/m 10,5 km/h (2 Bft)
26.07.2015 07:26 10,1 C 10,0 C 95 % 14 lf 1015,6 hPa 0,0 l/m 2 min 0 min 173 W/m 6,3 km/h (2 Bft)
26.07.2015 07:28 10,1 C 10,0 C 96 % 13 lf 1015,6 hPa 0,0 l/m 2 min 0 min 177 W/m 8,4 km/h (2 Bft)
26.07.2015 07:30 10,2 C 10,0 C 96 % 12 lf 1015,6 hPa 0,0 l/m 2 min 0 min 184 W/m 6,3 km/h (2 Bft)
26.07.2015 07:32 10,2 C 10,0 C 96 % 11 lf 1015,6 hPa 0,0 l/m 2 min 0 min 191 W/m 8,4 km/h (2 Bft)
26.07.2015 07:34 10,2 C 10,0 C 96 % 9 lf 1015,5 hPa 0,0 l/m 2 min 0 min 194 W/m 8,4 km/h (2 Bft)
26.07.2015 07:36 10,3 C 10,0 C 96 % 7 lf 1015,6 hPa 0,0 l/m 2 min 0 min 199 W/m 10,5 km/h (2 Bft)
26.07.2015 07:38 10,3 C 10,6 C 96 % 4 lf 1015,6 hPa 0,0 l/m 2 min 0 min 208 W/m 6,3 km/h (2 Bft)
26.07.2015 07:40 10,4 C 10,6 C 96 % 4 lf 1015,6 hPa 0,0 l/m 2 min 0 min 214 W/m 4,2 km/h (1 Bft)
26.07.2015 07:42 10,4 C 10,6 C 96 % 3 lf 1015,6 hPa 0,0 l/m 2 min 0 min 217 W/m 6,3 km/h (2 Bft)
26.07.2015 07:44 10,5 C 10,6 C 96 % 2 lf 1015,6 hPa 0,0 l/m 2 min 0 min 222 W/m 6,3 km/h (2 Bft)
26.07.2015 07:46 10,6 C 10,6 C 96 % 1 lf 1015,6 hPa 0,0 l/m 2 min 0 min 229 W/m 8,4 km/h (2 Bft)
26.07.2015 07:48 10,6 C 10,6 C 96 % 1 lf 1015,6 hPa 0,0 l/m 2 min 0 min 194 W/m 12,6 km/h (3 Bft)
26.07.2015 07:50 10,7 C 10,6 C 96 % 1 lf 1015,6 hPa 0,0 l/m 2 min 0 min 226 W/m 10,5 km/h (2 Bft)
26.07.2015 07:52 10,7 C 11,1 C 96 % 1 lf 1015,5 hPa 0,0 l/m 2 min 0 min 242 W/m 10,5 km/h (2 Bft)
26.07.2015 07:54 10,8 C 11,1 C 96 % 1 lf 1015,5 hPa 0,0 l/m 2 min 0 min 248 W/m 12,6 km/h (3 Bft)
26.07.2015 07:56 10,9 C 11,1 C 96 % 1 lf 1015,5 hPa 0,0 l/m 2 min 0 min 232 W/m 10,5 km/h (2 Bft)
26.07.2015 07:58 10,9 C 11,1 C 96 % 1 lf 1015,5 hPa 0,0 l/m 2 min 0 min 232 W/m 8,4 km/h (2 Bft)
26.07.2015 08:00 11,0 C 11,1 C 96 % 1 lf 1015,5 hPa 0,0 l/m 2 min 0 min 227 W/m 8,4 km/h (2 Bft)
26.07.2015 08:02 11,1 C 11,1 C 96 % 1 lf 1015,6 hPa 0,0 l/m 2 min 0 min 236 W/m 10,5 km/h (2 Bft)
26.07.2015 08:04 11,2 C 11,1 C 96 % 1 lf 1015,5 hPa 0,0 l/m 2 min 0 min 254 W/m 8,4 km/h (2 Bft)
26.07.2015 08:06 11,2 C 11,1 C 96 % 1 lf 1015,5 hPa 0,0 l/m 2 min 0 min 271 W/m 12,6 km/h (3 Bft)
26.07.2015 08:08 11,3 C 11,7 C 96 % 1 lf 1015,5 hPa 0,0 l/m 2 min 0 min 285 W/m 8,4 km/h (2 Bft)
26.07.2015 08:10 11,3 C 11,1 C 96 % 1 lf 1015,4 hPa 0,0 l/m 2 min 0 min 281 W/m 8,4 km/h (2 Bft)
26.07.2015 08:12 11,4 C 11,7 C 96 % 1 lf 1015,5 hPa 0,0 l/m 2 min 0 min 219 W/m 14,6 km/h (3 Bft)
26.07.2015 08:14 11,4 C 11,7 C 97 % 1 lf 1015,5 hPa 0,0 l/m 2 min 0 min 292 W/m 8,4 km/h (2 Bft)
26.07.2015 08:16 11,5 C 11,7 C 97 % 0 lf 1015,5 hPa 0,0 l/m 2 min 0 min 300 W/m 6,3 km/h (2 Bft)
26.07.2015 08:18 11,6 C 11,7 C 97 % 0 lf 1015,5 hPa 0,0 l/m 2 min 0 min 307 W/m 8,4 km/h (2 Bft)
26.07.2015 08:20 11,6 C 11,7 C 97 % 0 lf 1015,5 hPa 0,0 l/m 2 min 0 min 310 W/m 6,3 km/h (2 Bft)
26.07.2015 08:22 11,7 C 11,7 C 97 % 0 lf 1015,5 hPa 0,0 l/m 2 min 0 min 315 W/m 6,3 km/h (2 Bft)
26.07.2015 08:24 11,7 C 11,7 C 97 % 0 lf 1015,5 hPa 0,0 l/m 2 min 0 min 318 W/m 8,4 km/h (2 Bft)
26.07.2015 08:26 11,8 C 11,7 C 97 % 0 lf 1015,5 hPa 0,0 l/m 2 min 0 min 323 W/m 8,4 km/h (2 Bft)
26.07.2015 08:28 11,8 C 12,2 C 97 % 0 lf 1015,5 hPa 0,0 l/m 2 min 0 min 327 W/m 10,5 km/h (2 Bft)
26.07.2015 08:30 11,9 C 12,2 C 97 % 0 lf 1015,4 hPa 0,0 l/m 2 min 0 min 334 W/m 4,2 km/h (1 Bft)
26.07.2015 08:32 11,9 C 12,2 C 97 % 0 lf 1015,4 hPa 0,0 l/m 2 min 0 min 343 W/m 8,4 km/h (2 Bft)
26.07.2015 08:34 12,1 C 12,2 C 97 % 0 lf 1015,4 hPa 0,0 l/m 2 min 0 min 348 W/m 10,5 km/h (2 Bft)
26.07.2015 08:36 12,1 C 12,2 C 97 % 0 lf 1015,3 hPa 0,0 l/m 2 min 0 min 353 W/m 10,5 km/h (2 Bft)
26.07.2015 08:38 12,2 C 12,2 C 97 % 0 lf 1015,3 hPa 0,0 l/m 2 min 0 min 362 W/m 8,4 km/h (2 Bft)
26.07.2015 08:40 12,3 C 12,2 C 97 % 0 lf 1015,3 hPa 0,0 l/m 2 min 0 min 368 W/m 12,6 km/h (3 Bft)
26.07.2015 08:42 12,4 C 12,8 C 97 % 0 lf 1015,3 hPa 0,0 l/m 2 min 0 min 372 W/m 14,6 km/h (3 Bft)
26.07.2015 08:44 12,6 C 12,8 C 97 % 0 lf 1015,3 hPa 0,0 l/m 2 min 0 min 374 W/m 12,6 km/h (3 Bft)
26.07.2015 08:46 12,7 C 12,8 C 97 % 0 lf 1015,2 hPa 0,0 l/m 2 min 0 min 367 W/m 10,5 km/h (2 Bft)
26.07.2015 08:48 12,8 C 12,8 C 97 % 0 lf 1015,2 hPa 0,0 l/m 2 min 0 min 369 W/m 20,9 km/h (4 Bft)
26.07.2015 08:50 12,9 C 12,8 C 97 % 0 lf 1015,1 hPa 0,0 l/m 2 min 0 min 388 W/m 12,6 km/h (3 Bft)
26.07.2015 08:52 13,1 C 12,8 C 97 % 0 lf 1015,1 hPa 0,0 l/m 2 min 0 min 393 W/m 6,3 km/h (2 Bft)
26.07.2015 08:54 13,2 C 12,8 C 97 % 0 lf 1015,1 hPa 0,0 l/m 2 min 0 min 398 W/m 12,6 km/h (3 Bft)
26.07.2015 08:56 13,3 C 12,8 C 97 % 0 lf 1015,1 hPa 0,0 l/m 2 min 0 min 403 W/m 6,3 km/h (2 Bft)
26.07.2015 08:58 13,4 C 12,8 C 97 % 0 lf 1015,1 hPa 0,0 l/m 2 min 0 min 407 W/m 8,4 km/h (2 Bft)
26.07.2015 09:00 13,6 C 12,8 C 96 % 0 lf 1015,1 hPa 0,0 l/m 2 min 0 min 413 W/m 14,6 km/h (3 Bft)
26.07.2015 09:02 13,7 C 13,3 C 97 % 0 lf 1015,1 hPa 0,0 l/m 2 min 0 min 419 W/m 12,6 km/h (3 Bft)
26.07.2015 09:04 13,8 C 13,3 C 96 % 0 lf 1015,1 hPa 0,0 l/m 2 min 0 min 426 W/m 12,6 km/h (3 Bft)
26.07.2015 09:06 13,9 C 13,3 C 96 % 0 lf 1015,1 hPa 0,0 l/m 2 min 0 min 412 W/m 10,5 km/h (2 Bft)
26.07.2015 09:08 14,0 C 13,3 C 96 % 0 lf 1015,0 hPa 0,0 l/m 2 min 0 min 430 W/m 10,5 km/h (2 Bft)
26.07.2015 09:10 14,2 C 13,3 C 96 % 0 lf 1015,0 hPa 0,0 l/m 2 min 0 min 441 W/m 10,5 km/h (2 Bft)
26.07.2015 09:12 14,2 C 13,3 C 95 % 0 lf 1015,1 hPa 0,0 l/m 2 min 0 min 446 W/m 10,5 km/h (2 Bft)
26.07.2015 09:14 14,3 C 13,3 C 95 % 0 lf 1015,0 hPa 0,0 l/m 2 min 0 min 451 W/m 12,6 km/h (3 Bft)
26.07.2015 09:16 14,4 C 13,3 C 94 % 0 lf 1015,1 hPa 0,0 l/m 2 min 0 min 455 W/m 8,4 km/h (2 Bft)
26.07.2015 09:18 14,6 C 13,9 C 94 % 0 lf 1015,1 hPa 0,0 l/m 2 min 0 min 461 W/m 12,6 km/h (3 Bft)
26.07.2015 09:20 14,7 C 13,9 C 93 % 0 lf 1015,0 hPa 0,0 l/m 2 min 0 min 465 W/m 8,4 km/h (2 Bft)
26.07.2015 09:22 14,8 C 13,9 C 93 % 0 lf 1014,9 hPa 0,0 l/m 2 min 0 min 469 W/m 12,6 km/h (3 Bft)
26.07.2015 09:24 15,0 C 13,9 C 92 % 0 lf 1014,9 hPa 0,0 l/m 2 min 0 min 473 W/m 14,6 km/h (3 Bft)
26.07.2015 09:26 15,1 C 13,9 C 92 % 0 lf 1014,9 hPa 0,0 l/m 2 min 0 min 479 W/m 14,6 km/h (3 Bft)
26.07.2015 09:28 15,3 C 13,9 C 91 % 0 lf 1014,8 hPa 0,0 l/m 2 min 0 min 484 W/m 8,4 km/h (2 Bft)
26.07.2015 09:30 15,4 C 14,4 C 90 % 0 lf 1014,7 hPa 0,0 l/m 2 min 0 min 492 W/m 10,5 km/h (2 Bft)
26.07.2015 09:32 15,6 C 14,4 C 89 % 0 lf 1014,7 hPa 0,0 l/m 2 min 0 min 495 W/m 14,6 km/h (3 Bft)
26.07.2015 09:34 15,7 C 14,4 C 88 % 0 lf 1014,7 hPa 0,0 l/m 2 min 0 min 502 W/m 10,5 km/h (2 Bft)
26.07.2015 09:36 15,9 C 14,4 C 87 % 0 lf 1014,7 hPa 0,0 l/m 2 min 0 min 508 W/m 12,6 km/h (3 Bft)
26.07.2015 09:38 16,0 C 14,4 C 87 % 0 lf 1014,7 hPa 0,0 l/m 2 min 0 min 510 W/m 8,4 km/h (2 Bft)
26.07.2015 09:40 16,2 C 15,0 C 86 % 0 lf 1014,7 hPa 0,0 l/m 2 min 0 min 519 W/m 16,7 km/h (3 Bft)
26.07.2015 09:42 16,3 C 15,0 C 86 % 0 lf 1014,6 hPa 0,0 l/m 2 min 0 min 522 W/m 12,6 km/h (3 Bft)
26.07.2015 09:44 16,4 C 15,0 C 84 % 0 lf 1014,6 hPa 0,0 l/m 2 min 0 min 525 W/m 12,6 km/h (3 Bft)
26.07.2015 09:46 16,6 C 15,6 C 83 % 0 lf 1014,6 hPa 0,0 l/m 2 min 0 min 531 W/m 10,5 km/h (2 Bft)
26.07.2015 09:48 16,7 C 15,6 C 83 % 0 lf 1014,6 hPa 0,0 l/m 2 min 0 min 535 W/m 14,6 km/h (3 Bft)
26.07.2015 09:50 16,8 C 16,1 C 82 % 0 lf 1014,6 hPa 0,0 l/m 2 min 0 min 544 W/m 12,6 km/h (3 Bft)
26.07.2015 09:52 16,9 C 16,7 C 81 % 0 lf 1014,6 hPa 0,0 l/m 2 min 0 min 548 W/m 12,6 km/h (3 Bft)
26.07.2015 09:54 17,1 C 17,2 C 81 % 0 lf 1014,6 hPa 0,0 l/m 2 min 0 min 552 W/m 8,4 km/h (2 Bft)
26.07.2015 09:56 17,2 C 17,2 C 81 % 0 lf 1014,6 hPa 0,0 l/m 2 min 0 min 555 W/m 14,6 km/h (3 Bft)
26.07.2015 09:58 17,3 C 17,8 C 80 % 0 lf 1014,6 hPa 0,0 l/m 2 min 0 min 558 W/m 18,8 km/h (3 Bft)
26.07.2015 10:00 17,4 C 18,9 C 79 % 0 lf 1014,6 hPa 0,0 l/m 2 min 0 min 562 W/m 16,7 km/h (3 Bft)
26.07.2015 10:02 17,6 C 20,6 C 79 % 0 lf 1014,5 hPa 0,0 l/m 2 min 0 min 563 W/m 14,6 km/h (3 Bft)
26.07.2015 10:04 17,7 C 21,1 C 79 % 0 lf 1014,5 hPa 0,0 l/m 2 min 0 min 571 W/m 14,6 km/h (3 Bft)
26.07.2015 10:06 17,7 C 20,6 C 78 % 0 lf 1014,5 hPa 0,0 l/m 2 min 0 min 577 W/m 14,6 km/h (3 Bft)
26.07.2015 10:08 17,8 C 21,7 C 77 % 0 lf 1014,5 hPa 0,0 l/m 2 min 0 min 581 W/m 12,6 km/h (3 Bft)
26.07.2015 10:10 18,0 C 22,2 C 78 % 0 lf 1014,4 hPa 0,0 l/m 2 min 0 min 585 W/m 18,8 km/h (3 Bft)
26.07.2015 10:12 18,1 C 22,8 C 78 % 0 lf 1014,4 hPa 0,0 l/m 2 min 0 min 590 W/m 14,6 km/h (3 Bft)
26.07.2015 10:14 18,3 C 23,3 C 79 % 0 lf 1014,3 hPa 0,0 l/m 2 min 0 min 591 W/m 14,6 km/h (3 Bft)
26.07.2015 10:16 18,4 C 23,9 C 79 % 0 lf 1014,3 hPa 0,0 l/m 2 min 0 min 594 W/m 16,7 km/h (3 Bft)
26.07.2015 10:18 18,6 C 23,9 C 78 % 0 lf 1014,4 hPa 0,0 l/m 2 min 0 min 605 W/m 16,7 km/h (3 Bft)
26.07.2015 10:20 18,7 C 22,8 C 77 % 0 lf 1014,4 hPa 0,0 l/m 2 min 0 min 605 W/m 18,8 km/h (3 Bft)
26.07.2015 10:22 18,8 C 22,8 C 76 % 0 lf 1014,4 hPa 0,0 l/m 2 min 0 min 609 W/m 18,8 km/h (3 Bft)
26.07.2015 10:24 18,9 C 23,3 C 75 % 0 lf 1014,4 hPa 0,0 l/m 2 min 0 min 612 W/m 12,6 km/h (3 Bft)
26.07.2015 10:26 19,0 C 23,9 C 75 % 0 lf 1014,4 hPa 0,0 l/m 2 min 0 min 618 W/m 14,6 km/h (3 Bft)
26.07.2015 10:28 19,1 C 23,3 C 74 % 0 lf 1014,4 hPa 0,0 l/m 2 min 0 min 624 W/m 25,1 km/h (4 Bft)
26.07.2015 10:30 19,1 C 23,3 C 71 % 0 lf 1014,4 hPa 0,0 l/m 2 min 0 min 622 W/m 20,9 km/h (4 Bft)
26.07.2015 10:32 19,1 C 23,9 C 70 % 0 lf 1014,4 hPa 0,0 l/m 2 min 0 min 628 W/m 16,7 km/h (3 Bft)
26.07.2015 10:34 19,1 C 23,3 C 72 % 0 lf 1014,4 hPa 0,0 l/m 2 min 0 min 630 W/m 14,6 km/h (3 Bft)
26.07.2015 10:36 19,2 C 22,8 C 73 % 0 lf 1014,4 hPa 0,0 l/m 2 min 0 min 641 W/m 16,7 km/h (3 Bft)
26.07.2015 10:38 19,2 C 22,8 C 71 % 0 lf 1014,3 hPa 0,0 l/m 2 min 0 min 642 W/m 23,0 km/h (4 Bft)
26.07.2015 10:40 19,2 C 22,2 C 71 % 0 lf 1014,3 hPa 0,0 l/m 2 min 0 min 650 W/m 16,7 km/h (3 Bft)
26.07.2015 10:42 19,2 C 21,7 C 71 % 0 lf 1014,3 hPa 0,0 l/m 2 min 0 min 654 W/m 23,0 km/h (4 Bft)
26.07.2015 10:44 19,3 C 20,6 C 72 % 0 lf 1014,3 hPa 0,0 l/m 2 min 0 min 666 W/m 20,9 km/h (4 Bft)
26.07.2015 10:46 19,4 C 20,0 C 71 % 0 lf 1014,3 hPa 0,0 l/m 2 min 0 min 670 W/m 16,7 km/h (3 Bft)
26.07.2015 10:48 19,5 C 20,0 C 72 % 0 lf 1014,2 hPa 0,0 l/m 2 min 0 min 667 W/m 12,6 km/h (3 Bft)
26.07.2015 10:50 19,6 C 20,0 C 73 % 0 lf 1014,2 hPa 0,0 l/m 2 min 0 min 672 W/m 14,6 km/h (3 Bft)
26.07.2015 10:52 19,7 C 20,0 C 70 % 0 lf 1014,1 hPa 0,0 l/m 2 min 0 min 684 W/m 14,6 km/h (3 Bft)
26.07.2015 10:54 19,8 C 21,1 C 70 % 0 lf 1014,0 hPa 0,0 l/m 2 min 0 min 688 W/m 12,6 km/h (3 Bft)
26.07.2015 10:56 19,9 C 22,2 C 68 % 0 lf 1014,0 hPa 0,0 l/m 2 min 0 min 704 W/m 16,7 km/h (3 Bft)
26.07.2015 10:58 20,1 C 22,2 C 67 % 0 lf 1014,0 hPa 0,0 l/m 2 min 0 min 708 W/m 29,3 km/h (5 Bft)
26.07.2015 11:00 20,1 C 21,1 C 65 % 0 lf 1013,9 hPa 0,0 l/m 2 min 0 min 712 W/m 18,8 km/h (3 Bft)
26.07.2015 11:02 20,1 C 21,1 C 64 % 0 lf 1013,7 hPa 0,0 l/m 2 min 0 min 706 W/m 16,7 km/h (3 Bft)
26.07.2015 11:04 20,2 C 21,1 C 63 % 0 lf 1013,7 hPa 0,0 l/m 2 min 0 min 704 W/m 16,7 km/h (3 Bft)
26.07.2015 11:06 20,2 C 21,1 C 63 % 0 lf 1013,6 hPa 0,0 l/m 2 min 0 min 716 W/m 16,7 km/h (3 Bft)
26.07.2015 11:08 20,2 C 21,1 C 63 % 0 lf 1013,6 hPa 0,0 l/m 2 min 0 min 727 W/m 25,1 km/h (4 Bft)
26.07.2015 11:10 20,3 C 21,1 C 63 % 0 lf 1013,6 hPa 0,0 l/m 2 min 0 min 738 W/m 20,9 km/h (4 Bft)
26.07.2015 11:12 20,3 C 20,0 C 63 % 0 lf 1013,5 hPa 0,0 l/m 2 min 0 min 738 W/m 18,8 km/h (3 Bft)
26.07.2015 11:14 20,4 C 20,6 C 64 % 0 lf 1013,5 hPa 0,0 l/m 2 min 0 min 755 W/m 10,5 km/h (2 Bft)
26.07.2015 11:16 20,5 C 20,6 C 64 % 0 lf 1013,4 hPa 0,0 l/m 2 min 0 min 784 W/m 20,9 km/h (4 Bft)
26.07.2015 11:18 20,7 C 21,1 C 62 % 0 lf 1013,4 hPa 0,0 l/m 2 min 0 min 799 W/m 16,7 km/h (3 Bft)
26.07.2015 11:20 20,8 C 20,6 C 63 % 0 lf 1013,4 hPa 0,0 l/m 2 min 0 min 778 W/m 14,6 km/h (3 Bft)
26.07.2015 11:22 20,9 C 21,1 C 63 % 0 lf 1013,4 hPa 0,0 l/m 2 min 0 min 762 W/m 18,8 km/h (3 Bft)
26.07.2015 11:24 21,0 C 20,6 C 59 % 0 lf 1013,3 hPa 0,0 l/m 2 min 0 min 758 W/m 18,8 km/h (3 Bft)
26.07.2015 11:26 21,1 C 20,6 C 58 % 0 lf 1013,3 hPa 0,0 l/m 2 min 0 min 751 W/m 18,8 km/h (3 Bft)
26.07.2015 11:28 21,2 C 20,0 C 58 % 0 lf 1013,3 hPa 0,0 l/m 2 min 0 min 739 W/m 16,7 km/h (3 Bft)
26.07.2015 11:30 21,1 C 20,0 C 54 % 0 lf 1013,2 hPa 0,0 l/m 2 min 0 min 737 W/m 27,2 km/h (4 Bft)
26.07.2015 11:32 21,1 C 19,4 C 55 % 0 lf 1013,2 hPa 0,0 l/m 2 min 0 min 738 W/m 18,8 km/h (3 Bft)
26.07.2015 11:34 21,1 C 19,4 C 56 % 0 lf 1013,2 hPa 0,0 l/m 2 min 0 min 750 W/m 10,5 km/h (2 Bft)
26.07.2015 11:36 21,1 C 20,0 C 55 % 0 lf 1013,1 hPa 0,0 l/m 2 min 0 min 743 W/m 25,1 km/h (4 Bft)
26.07.2015 11:38 21,2 C 20,6 C 55 % 0 lf 1013,1 hPa 0,0 l/m 2 min 0 min 723 W/m 29,3 km/h (5 Bft)
26.07.2015 11:40 21,1 C 21,7 C 55 % 0 lf 1013,2 hPa 0,0 l/m 2 min 0 min 745 W/m 29,3 km/h (5 Bft)
26.07.2015 11:42 21,1 C 22,8 C 56 % 0 lf 1013,1 hPa 0,0 l/m 2 min 0 min 774 W/m 20,9 km/h (4 Bft)
26.07.2015 11:44 21,1 C 22,8 C 56 % 0 lf 1013,0 hPa 0,0 l/m 2 min 0 min 813 W/m 18,8 km/h (3 Bft)
26.07.2015 11:46 21,2 C 23,3 C 54 % 0 lf 1012,9 hPa 0,0 l/m 2 min 0 min 827 W/m 23,0 km/h (4 Bft)
26.07.2015 11:48 21,2 C 23,9 C 55 % 0 lf 1013,0 hPa 0,0 l/m 2 min 0 min 831 W/m 27,2 km/h (4 Bft)
26.07.2015 11:50 21,3 C 24,4 C 55 % 0 lf 1013,1 hPa 0,0 l/m 2 min 0 min 835 W/m 29,3 km/h (5 Bft)
26.07.2015 11:52 21,3 C 23,9 C 53 % 0 lf 1012,9 hPa 0,0 l/m 2 min 0 min 841 W/m 25,1 km/h (4 Bft)
26.07.2015 11:54 21,3 C 23,9 C 54 % 0 lf 1012,9 hPa 0,0 l/m 2 min 0 min 863 W/m 23,0 km/h (4 Bft)
26.07.2015 11:56 21,4 C 24,4 C 55 % 0 lf 1012,8 hPa 0,0 l/m 2 min 0 min 885 W/m 16,7 km/h (3 Bft)
26.07.2015 11:58 21,5 C 25,0 C 54 % 0 lf 1012,9 hPa 0,0 l/m 2 min 0 min 928 W/m 20,9 km/h (4 Bft)
26.07.2015 12:00 21,6 C 25,6 C 54 % 0 lf 1012,8 hPa 0,0 l/m 2 min 0 min 926 W/m 16,7 km/h (3 Bft)
26.07.2015 12:02 21,7 C 25,0 C 55 % 0 lf 1012,7 hPa 0,0 l/m 2 min 0 min 946 W/m 16,7 km/h (3 Bft)
26.07.2015 12:05 21,8 C 24,4 C 53 % 0 lf 1012,7 hPa 0,0 l/m 2 min 0 min 925 W/m 35,6 km/h (5 Bft)
26.07.2015 12:10 21,8 C 21,1 C 52 % 0 lf 1012,7 hPa 0,0 l/m 2 min 0 min 824 W/m 35,6 km/h (5 Bft)
26.07.2015 12:12 21,7 C 20,0 C 51 % 0 lf 1012,7 hPa 0,0 l/m 0 min 0 min 216 W/m 18,8 km/h (3 Bft)
26.07.2015 12:14 21,6 C 20,6 C 52 % 0 lf 1012,7 hPa 0,0 l/m 0 min 0 min 236 W/m 14,6 km/h (3 Bft)
26.07.2015 12:16 21,5 C 20,0 C 52 % 0 lf 1012,6 hPa 0,0 l/m 0 min 0 min 215 W/m 14,6 km/h (3 Bft)
26.07.2015 12:18 21,4 C 19,4 C 52 % 0 lf 1012,6 hPa 0,0 l/m 0 min 0 min 203 W/m 10,5 km/h (2 Bft)
26.07.2015 12:20 21,3 C 19,4 C 53 % 0 lf 1012,6 hPa 0,0 l/m 0 min 0 min 235 W/m 10,5 km/h (2 Bft)
26.07.2015 12:22 21,3 C 19,4 C 55 % 0 lf 1012,6 hPa 0,0 l/m 0 min 0 min 298 W/m 12,6 km/h (3 Bft)
26.07.2015 12:24 21,3 C 20,6 C 56 % 0 lf 1012,5 hPa 0,0 l/m 2 min 0 min 398 W/m 18,8 km/h (3 Bft)
26.07.2015 12:26 21,3 C 20,6 C 55 % 0 lf 1012,4 hPa 0,0 l/m 0 min 0 min 314 W/m 20,9 km/h (4 Bft)
26.07.2015 12:28 21,3 C 21,1 C 55 % 0 lf 1012,3 hPa 0,0 l/m 2 min 0 min 749 W/m 14,6 km/h (3 Bft)
26.07.2015 12:30 21,3 C 21,1 C 55 % 0 lf 1012,3 hPa 0,0 l/m 0 min 0 min 331 W/m 20,9 km/h (4 Bft)
26.07.2015 12:32 21,2 C 21,1 C 55 % 0 lf 1012,3 hPa 0,0 l/m 0 min 0 min 250 W/m 25,1 km/h (4 Bft)
26.07.2015 12:34 21,2 C 22,2 C 53 % 0 lf 1012,2 hPa 0,0 l/m 2 min 0 min 740 W/m 20,9 km/h (4 Bft)
26.07.2015 12:36 21,3 C 22,2 C 54 % 0 lf 1012,2 hPa 0,0 l/m 2 min 0 min 887 W/m 27,2 km/h (4 Bft)
26.07.2015 12:38 21,3 C 21,7 C 54 % 0 lf 1012,1 hPa 0,0 l/m 2 min 0 min 893 W/m 25,1 km/h (4 Bft)
26.07.2015 12:40 21,3 C 21,1 C 53 % 0 lf 1012,1 hPa 0,0 l/m 2 min 0 min 653 W/m 25,1 km/h (4 Bft)
26.07.2015 12:42 21,2 C 20,0 C 53 % 0 lf 1012,0 hPa 0,0 l/m 0 min 0 min 216 W/m 23,0 km/h (4 Bft)
26.07.2015 12:44 21,2 C 20,0 C 53 % 0 lf 1012,0 hPa 0,0 l/m 0 min 0 min 239 W/m 23,0 km/h (4 Bft)
26.07.2015 12:46 21,1 C 21,7 C 55 % 0 lf 1011,9 hPa 0,0 l/m 0 min 0 min 306 W/m 20,9 km/h (4 Bft)
26.07.2015 12:48 21,2 C 22,2 C 57 % 0 lf 1011,9 hPa 0,0 l/m 2 min 0 min 420 W/m 20,9 km/h (4 Bft)
26.07.2015 12:50 21,3 C 22,2 C 55 % 0 lf 1011,9 hPa 0,0 l/m 2 min 0 min 458 W/m 23,0 km/h (4 Bft)
26.07.2015 12:52 21,4 C 21,7 C 53 % 0 lf 1011,9 hPa 0,0 l/m 2 min 0 min 468 W/m 31,4 km/h (5 Bft)
26.07.2015 12:54 21,5 C 21,7 C 54 % 0 lf 1011,9 hPa 0,0 l/m 2 min 0 min 645 W/m 33,5 km/h (5 Bft)
26.07.2015 12:56 21,6 C 21,1 C 53 % 0 lf 1011,8 hPa 0,0 l/m 2 min 0 min 873 W/m 23,0 km/h (4 Bft)
26.07.2015 12:58 21,7 C 21,1 C 53 % 0 lf 1011,8 hPa 0,0 l/m 2 min 0 min 889 W/m 25,1 km/h (4 Bft)
26.07.2015 13:00 21,7 C 21,1 C 54 % 0 lf 1011,7 hPa 0,0 l/m 2 min 0 min 912 W/m 25,1 km/h (4 Bft)
26.07.2015 13:02 21,9 C 21,7 C 54 % 0 lf 1011,8 hPa 0,0 l/m 2 min 0 min 932 W/m 29,3 km/h (5 Bft)
26.07.2015 13:04 22,0 C 21,7 C 54 % 0 lf 1011,7 hPa 0,0 l/m 2 min 0 min 935 W/m 25,1 km/h (4 Bft)
26.07.2015 13:06 22,1 C 22,2 C 52 % 0 lf 1011,6 hPa 0,0 l/m 2 min 0 min 914 W/m 25,1 km/h (4 Bft)
26.07.2015 13:08 22,2 C 22,2 C 53 % 0 lf 1011,6 hPa 0,0 l/m 2 min 0 min 908 W/m 23,0 km/h (4 Bft)
26.07.2015 13:10 22,3 C 22,2 C 52 % 0 lf 1011,5 hPa 0,0 l/m 2 min 0 min 938 W/m 29,3 km/h (5 Bft)
26.07.2015 13:12 22,4 C 22,8 C 51 % 0 lf 1011,5 hPa 0,0 l/m 2 min 0 min 982 W/m 27,2 km/h (4 Bft)
26.07.2015 13:14 22,4 C 23,3 C 53 % 0 lf 1011,4 hPa 0,0 l/m 2 min 0 min 995 W/m 18,8 km/h (3 Bft)
26.07.2015 13:16 22,6 C 23,9 C 52 % 0 lf 1011,6 hPa 0,0 l/m 2 min 0 min 974 W/m 23,0 km/h (4 Bft)
26.07.2015 13:18 22,6 C 23,9 C 52 % 0 lf 1011,5 hPa 0,0 l/m 2 min 0 min 943 W/m 23,0 km/h (4 Bft)
26.07.2015 13:20 22,6 C 23,3 C 52 % 0 lf 1011,5 hPa 0,0 l/m 2 min 0 min 942 W/m 18,8 km/h (3 Bft)
26.07.2015 13:22 22,6 C 22,2 C 50 % 0 lf 1011,5 hPa 0,0 l/m 0 min 0 min 307 W/m 25,1 km/h (4 Bft)
26.07.2015 13:24 22,5 C 21,1 C 50 % 0 lf 1011,4 hPa 0,0 l/m 0 min 0 min 181 W/m 20,9 km/h (4 Bft)
26.07.2015 13:26 22,4 C 20,6 C 51 % 0 lf 1011,4 hPa 0,0 l/m 0 min 0 min 233 W/m 14,6 km/h (3 Bft)
26.07.2015 13:28 22,4 C 20,6 C 51 % 0 lf 1011,4 hPa 0,0 l/m 0 min 0 min 248 W/m 14,6 km/h (3 Bft)
26.07.2015 13:30 22,3 C 20,6 C 51 % 0 lf 1011,4 hPa 0,0 l/m 0 min 0 min 248 W/m 20,9 km/h (4 Bft)
26.07.2015 13:32 22,3 C 20,6 C 51 % 0 lf 1011,4 hPa 0,0 l/m 0 min 0 min 233 W/m 18,8 km/h (3 Bft)
26.07.2015 13:34 22,2 C 20,0 C 52 % 0 lf 1011,3 hPa 0,0 l/m 0 min 0 min 234 W/m 20,9 km/h (4 Bft)
26.07.2015 13:36 22,2 C 20,6 C 52 % 0 lf 1011,2 hPa 0,0 l/m 2 min 0 min 666 W/m 16,7 km/h (3 Bft)
26.07.2015 13:38 22,2 C 21,1 C 54 % 0 lf 1011,1 hPa 0,0 l/m 2 min 0 min 993 W/m 10,5 km/h (2 Bft)
26.07.2015 13:40 22,2 C 21,1 C 53 % 0 lf 1011,1 hPa 0,0 l/m 2 min 0 min 692 W/m 33,5 km/h (5 Bft)
26.07.2015 13:42 22,3 C 21,1 C 53 % 0 lf 1011,2 hPa 0,0 l/m 0 min 0 min 247 W/m 20,9 km/h (4 Bft)
26.07.2015 13:44 22,3 C 21,1 C 54 % 0 lf 1011,1 hPa 0,0 l/m 0 min 0 min 334 W/m 20,9 km/h (4 Bft)
26.07.2015 13:46 22,3 C 21,1 C 52 % 0 lf 1011,1 hPa 0,0 l/m 0 min 0 min 334 W/m 27,2 km/h (4 Bft)
26.07.2015 13:48 22,3 C 21,1 C 53 % 0 lf 1011,0 hPa 0,0 l/m 2 min 0 min 686 W/m 25,1 km/h (4 Bft)
26.07.2015 13:50 22,3 C 21,1 C 51 % 0 lf 1011,0 hPa 0,0 l/m 2 min 0 min 946 W/m 23,0 km/h (4 Bft)
26.07.2015 13:52 22,3 C 21,1 C 53 % 0 lf 1011,0 hPa 0,0 l/m 2 min 0 min 588 W/m 18,8 km/h (3 Bft)
26.07.2015 13:54 22,3 C 20,6 C 51 % 0 lf 1010,9 hPa 0,0 l/m 0 min 0 min 216 W/m 16,7 km/h (3 Bft)
26.07.2015 13:56 22,2 C 20,6 C 51 % 0 lf 1010,8 hPa 0,0 l/m 0 min 0 min 409 W/m 16,7 km/h (3 Bft)
26.07.2015 13:58 22,2 C 21,1 C 51 % 0 lf 1010,8 hPa 0,0 l/m 2 min 0 min 824 W/m 20,9 km/h (4 Bft)
26.07.2015 14:00 22,3 C 21,7 C 54 % 0 lf 1010,8 hPa 0,0 l/m 2 min 0 min 1013 W/m 31,4 km/h (5 Bft)
26.07.2015 14:02 22,3 C 21,7 C 50 % 0 lf 1010,8 hPa 0,0 l/m 2 min 0 min 1014 W/m 33,5 km/h (5 Bft)
26.07.2015 14:04 22,3 C 21,1 C 51 % 0 lf 1010,9 hPa 0,0 l/m 2 min 0 min 1013 W/m 29,3 km/h (5 Bft)
26.07.2015 14:06 22,4 C 21,1 C 52 % 0 lf 1010,8 hPa 0,0 l/m 2 min 0 min 972 W/m 18,8 km/h (3 Bft)
26.07.2015 14:08 22,4 C 21,7 C 50 % 0 lf 1010,6 hPa 0,0 l/m 2 min 0 min 946 W/m 18,8 km/h (3 Bft)
26.07.2015 14:10 22,4 C 21,7 C 51 % 0 lf 1010,7 hPa 0,0 l/m 2 min 0 min 888 W/m 18,8 km/h (3 Bft)
26.07.2015 14:12 22,4 C 21,1 C 51 % 0 lf 1010,7 hPa 0,0 l/m 0 min 0 min 252 W/m 18,8 km/h (3 Bft)
26.07.2015 14:14 22,4 C 21,1 C 52 % 0 lf 1010,7 hPa 0,0 l/m 2 min 0 min 450 W/m 16,7 km/h (3 Bft)
26.07.2015 14:16 22,4 C 20,6 C 50 % 0 lf 1010,6 hPa 0,0 l/m 2 min 0 min 486 W/m 20,9 km/h (4 Bft)
26.07.2015 14:18 22,4 C 21,1 C 51 % 0 lf 1010,5 hPa 0,0 l/m 0 min 0 min 301 W/m 23,0 km/h (4 Bft)
26.07.2015 14:20 22,4 C 21,1 C 49 % 0 lf 1010,4 hPa 0,0 l/m 0 min 0 min 290 W/m 18,8 km/h (3 Bft)
26.07.2015 14:22 22,4 C 21,7 C 51 % 0 lf 1010,4 hPa 0,0 l/m 2 min 0 min 940 W/m 16,7 km/h (3 Bft)
26.07.2015 14:24 22,5 C 21,7 C 50 % 0 lf 1010,4 hPa 0,0 l/m 2 min 0 min 740 W/m 25,1 km/h (4 Bft)
26.07.2015 14:26 22,5 C 21,1 C 50 % 0 lf 1010,5 hPa 0,0 l/m 2 min 0 min 472 W/m 23,0 km/h (4 Bft)
26.07.2015 14:28 22,5 C 20,6 C 49 % 0 lf 1010,5 hPa 0,0 l/m 0 min 0 min 253 W/m 23,0 km/h (4 Bft)
26.07.2015 14:30 22,4 C 20,6 C 49 % 0 lf 1010,4 hPa 0,0 l/m 0 min 0 min 265 W/m 20,9 km/h (4 Bft)
26.07.2015 14:32 22,4 C 20,6 C 50 % 0 lf 1010,4 hPa 0,0 l/m 0 min 0 min 217 W/m 14,6 km/h (3 Bft)
26.07.2015 14:34 22,3 C 20,0 C 50 % 0 lf 1010,4 hPa 0,0 l/m 0 min 0 min 198 W/m 8,4 km/h (2 Bft)
26.07.2015 14:36 22,3 C 20,0 C 50 % 0 lf 1010,4 hPa 0,0 l/m 0 min 0 min 205 W/m 16,7 km/h (3 Bft)
26.07.2015 14:38 22,2 C 20,0 C 50 % 0 lf 1010,3 hPa 0,0 l/m 0 min 0 min 249 W/m 16,7 km/h (3 Bft)
26.07.2015 14:40 22,2 C 20,6 C 51 % 0 lf 1010,3 hPa 0,0 l/m 0 min 0 min 255 W/m 18,8 km/h (3 Bft)
26.07.2015 14:42 22,1 C 20,6 C 51 % 0 lf 1010,3 hPa 0,0 l/m 0 min 0 min 278 W/m 18,8 km/h (3 Bft)
26.07.2015 14:44 22,1 C 21,1 C 51 % 0 lf 1010,3 hPa 0,0 l/m 0 min 0 min 288 W/m 14,6 km/h (3 Bft)
26.07.2015 14:46 22,2 C 21,7 C 53 % 0 lf 1010,2 hPa 0,0 l/m 0 min 0 min 327 W/m 16,7 km/h (3 Bft)
26.07.2015 14:48 22,2 C 21,1 C 50 % 0 lf 1010,1 hPa 0,0 l/m 2 min 0 min 635 W/m 29,3 km/h (5 Bft)
26.07.2015 14:50 22,2 C 21,1 C 50 % 0 lf 1010,1 hPa 0,0 l/m 0 min 0 min 339 W/m 23,0 km/h (4 Bft)
26.07.2015 14:52 22,2 C 21,1 C 49 % 0 lf 1010,0 hPa 0,0 l/m 0 min 0 min 319 W/m 23,0 km/h (4 Bft)
26.07.2015 14:54 22,2 C 21,1 C 51 % 0 lf 1010,0 hPa 0,0 l/m 0 min 0 min 332 W/m 16,7 km/h (3 Bft)
26.07.2015 14:56 22,2 C 21,1 C 49 % 0 lf 1009,9 hPa 0,0 l/m 0 min 0 min 336 W/m 20,9 km/h (4 Bft)
26.07.2015 14:58 22,3 C 21,7 C 51 % 0 lf 1009,9 hPa 0,0 l/m 2 min 0 min 712 W/m 23,0 km/h (4 Bft)
26.07.2015 15:00 22,3 C 21,7 C 50 % 0 lf 1009,8 hPa 0,0 l/m 2 min 0 min 791 W/m 25,1 km/h (4 Bft)
26.07.2015 15:02 22,4 C 21,7 C 51 % 0 lf 1009,8 hPa 0,0 l/m 2 min 0 min 524 W/m 23,0 km/h (4 Bft)
26.07.2015 15:04 22,5 C 21,7 C 50 % 0 lf 1009,7 hPa 0,0 l/m 2 min 0 min 791 W/m 31,4 km/h (5 Bft)
26.07.2015 15:06 22,6 C 21,7 C 52 % 0 lf 1009,7 hPa 0,0 l/m 2 min 0 min 448 W/m 14,6 km/h (3 Bft)
26.07.2015 15:08 22,7 C 22,2 C 50 % 0 lf 1009,7 hPa 0,0 l/m 2 min 0 min 830 W/m 14,6 km/h (3 Bft)
26.07.2015 15:10 22,8 C 22,2 C 51 % 0 lf 1009,7 hPa 0,0 l/m 2 min 0 min 750 W/m 16,7 km/h (3 Bft)
26.07.2015 15:12 22,9 C 22,2 C 50 % 0 lf 1009,7 hPa 0,0 l/m 2 min 0 min 513 W/m 18,8 km/h (3 Bft)
26.07.2015 15:14 22,9 C 22,2 C 48 % 0 lf 1009,6 hPa 0,0 l/m 0 min 0 min 332 W/m 20,9 km/h (4 Bft)
26.07.2015 15:16 22,9 C 21,7 C 48 % 0 lf 1009,5 hPa 0,0 l/m 0 min 0 min 290 W/m 16,7 km/h (3 Bft)
26.07.2015 15:18 22,9 C 21,7 C 48 % 0 lf 1009,4 hPa 0,0 l/m 0 min 0 min 293 W/m 16,7 km/h (3 Bft)
26.07.2015 15:20 22,8 C 21,7 C 48 % 0 lf 1009,4 hPa 0,0 l/m 0 min 0 min 276 W/m 14,6 km/h (3 Bft)
26.07.2015 15:22 22,8 C 21,7 C 50 % 0 lf 1009,3 hPa 0,0 l/m 0 min 0 min 304 W/m 6,3 km/h (2 Bft)
26.07.2015 15:24 22,8 C 21,7 C 48 % 0 lf 1009,3 hPa 0,0 l/m 0 min 0 min 346 W/m 16,7 km/h (3 Bft)
26.07.2015 15:26 22,8 C 21,7 C 49 % 0 lf 1009,2 hPa 0,0 l/m 0 min 0 min 357 W/m 18,8 km/h (3 Bft)
26.07.2015 15:28 22,8 C 21,7 C 49 % 0 lf 1009,2 hPa 0,0 l/m 0 min 0 min 342 W/m 16,7 km/h (3 Bft)
26.07.2015 15:30 22,7 C 21,7 C 49 % 0 lf 1009,2 hPa 0,0 l/m 0 min 0 min 297 W/m 14,6 km/h (3 Bft)
26.07.2015 15:32 22,7 C 21,1 C 49 % 0 lf 1009,2 hPa 0,0 l/m 0 min 0 min 282 W/m 14,6 km/h (3 Bft)
26.07.2015 15:34 22,7 C 21,1 C 49 % 0 lf 1009,2 hPa 0,0 l/m 0 min 0 min 322 W/m 16,7 km/h (3 Bft)
26.07.2015 15:36 22,7 C 21,1 C 49 % 0 lf 1009,2 hPa 0,0 l/m 2 min 0 min 385 W/m 14,6 km/h (3 Bft)
26.07.2015 15:38 22,7 C 21,7 C 49 % 0 lf 1009,1 hPa 0,0 l/m 2 min 0 min 425 W/m 12,6 km/h (3 Bft)
26.07.2015 15:40 22,7 C 21,7 C 50 % 0 lf 1009,1 hPa 0,0 l/m 2 min 0 min 407 W/m 14,6 km/h (3 Bft)
26.07.2015 15:42 22,7 C 21,7 C 49 % 0 lf 1009,1 hPa 0,0 l/m 2 min 0 min 500 W/m 20,9 km/h (4 Bft)
26.07.2015 15:44 22,7 C 21,7 C 50 % 0 lf 1009,1 hPa 0,0 l/m 2 min 0 min 484 W/m 18,8 km/h (3 Bft)
26.07.2015 15:46 22,7 C 21,7 C 49 % 0 lf 1009,0 hPa 0,0 l/m 0 min 0 min 368 W/m 16,7 km/h (3 Bft)
26.07.2015 15:48 22,7 C 21,7 C 48 % 0 lf 1008,9 hPa 0,0 l/m 0 min 0 min 333 W/m 18,8 km/h (3 Bft)
26.07.2015 15:50 22,7 C 21,7 C 49 % 0 lf 1008,9 hPa 0,0 l/m 0 min 0 min 322 W/m 10,5 km/h (2 Bft)
26.07.2015 15:52 22,7 C 21,7 C 51 % 0 lf 1008,8 hPa 0,0 l/m 0 min 0 min 328 W/m 16,7 km/h (3 Bft)
26.07.2015 15:54 22,7 C 21,1 C 49 % 0 lf 1008,9 hPa 0,0 l/m 0 min 0 min 330 W/m 25,1 km/h (4 Bft)
26.07.2015 15:56 22,6 C 21,1 C 49 % 0 lf 1008,7 hPa 0,0 l/m 0 min 0 min 318 W/m 14,6 km/h (3 Bft)
26.07.2015 15:58 22,6 C 21,1 C 48 % 0 lf 1008,6 hPa 0,0 l/m 0 min 0 min 306 W/m 16,7 km/h (3 Bft)
26.07.2015 16:00 22,6 C 21,1 C 50 % 0 lf 1008,6 hPa 0,0 l/m 0 min 0 min 302 W/m 12,6 km/h (3 Bft)
26.07.2015 16:02 22,6 C 21,1 C 49 % 0 lf 1008,6 hPa 0,0 l/m 0 min 0 min 304 W/m 16,7 km/h (3 Bft)
26.07.2015 16:04 22,5 C 21,1 C 49 % 0 lf 1008,5 hPa 0,0 l/m 0 min 0 min 293 W/m 18,8 km/h (3 Bft)
26.07.2015 16:06 22,5 C 21,1 C 49 % 0 lf 1008,5 hPa 0,0 l/m 0 min 0 min 275 W/m 16,7 km/h (3 Bft)
26.07.2015 16:08 22,4 C 21,1 C 49 % 0 lf 1008,4 hPa 0,0 l/m 0 min 0 min 273 W/m 14,6 km/h (3 Bft)
26.07.2015 16:10 22,4 C 21,1 C 49 % 0 lf 1008,4 hPa 0,0 l/m 0 min 0 min 270 W/m 12,6 km/h (3 Bft)
26.07.2015 16:12 22,4 C 21,1 C 51 % 0 lf 1008,4 hPa 0,0 l/m 0 min 0 min 261 W/m 18,8 km/h (3 Bft)
26.07.2015 16:14 22,4 C 20,6 C 49 % 0 lf 1008,4 hPa 0,0 l/m 0 min 0 min 256 W/m 18,8 km/h (3 Bft)
26.07.2015 16:16 22,4 C 20,6 C 49 % 0 lf 1008,4 hPa 0,0 l/m 0 min 0 min 258 W/m 12,6 km/h (3 Bft)
26.07.2015 16:18 22,3 C 20,6 C 49 % 0 lf 1008,3 hPa 0,0 l/m 0 min 0 min 262 W/m 20,9 km/h (4 Bft)
26.07.2015 16:20 22,3 C 20,6 C 51 % 0 lf 1008,3 hPa 0,0 l/m 0 min 0 min 261 W/m 12,6 km/h (3 Bft)
26.07.2015 16:22 22,3 C 20,6 C 50 % 0 lf 1008,2 hPa 0,0 l/m 0 min 0 min 256 W/m 18,8 km/h (3 Bft)
26.07.2015 16:24 22,2 C 20,6 C 50 % 0 lf 1008,2 hPa 0,0 l/m 0 min 0 min 255 W/m 16,7 km/h (3 Bft)
26.07.2015 16:26 22,2 C 20,6 C 51 % 0 lf 1008,2 hPa 0,0 l/m 0 min 0 min 251 W/m 23,0 km/h (4 Bft)
26.07.2015 16:28 22,1 C 20,6 C 50 % 0 lf 1008,2 hPa 0,0 l/m 0 min 0 min 241 W/m 23,0 km/h (4 Bft)
26.07.2015 16:30 22,1 C 20,6 C 52 % 0 lf 1008,2 hPa 0,0 l/m 0 min 0 min 233 W/m 14,6 km/h (3 Bft)
26.07.2015 16:32 22,0 C 20,0 C 51 % 0 lf 1008,1 hPa 0,0 l/m 0 min 0 min 224 W/m 18,8 km/h (3 Bft)
26.07.2015 16:34 21,9 C 20,0 C 51 % 0 lf 1008,2 hPa 0,0 l/m 0 min 0 min 213 W/m 27,2 km/h (4 Bft)
26.07.2015 16:36 21,9 C 20,0 C 51 % 0 lf 1008,1 hPa 0,0 l/m 0 min 0 min 200 W/m 16,7 km/h (3 Bft)
26.07.2015 16:38 21,8 C 20,0 C 52 % 0 lf 1008,0 hPa 0,0 l/m 0 min 0 min 186 W/m 14,6 km/h (3 Bft)
26.07.2015 16:40 21,8 C 20,0 C 52 % 0 lf 1008,1 hPa 0,0 l/m 0 min 0 min 169 W/m 10,5 km/h (2 Bft)
26.07.2015 16:42 21,8 C 20,0 C 52 % 0 lf 1008,0 hPa 0,0 l/m 0 min 0 min 163 W/m 14,6 km/h (3 Bft)
26.07.2015 16:44 21,7 C 19,4 C 51 % 0 lf 1008,1 hPa 0,0 l/m 0 min 0 min 163 W/m 16,7 km/h (3 Bft)
26.07.2015 16:46 21,7 C 19,4 C 52 % 0 lf 1008,1 hPa 0,0 l/m 0 min 0 min 167 W/m 14,6 km/h (3 Bft)
26.07.2015 16:48 21,7 C 20,0 C 53 % 0 lf 1008,1 hPa 0,0 l/m 0 min 0 min 167 W/m 20,9 km/h (4 Bft)
26.07.2015 16:50 21,6 C 19,4 C 52 % 0 lf 1008,0 hPa 0,0 l/m 0 min 0 min 167 W/m 16,7 km/h (3 Bft)
26.07.2015 16:52 21,6 C 19,4 C 52 % 0 lf 1008,0 hPa 0,0 l/m 0 min 0 min 167 W/m 14,6 km/h (3 Bft)
26.07.2015 16:54 21,5 C 19,4 C 54 % 0 lf 1007,9 hPa 0,0 l/m 0 min 0 min 162 W/m 6,3 km/h (2 Bft)
26.07.2015 16:56 21,5 C 20,0 C 54 % 0 lf 1008,0 hPa 0,0 l/m 0 min 2 min 158 W/m 10,5 km/h (2 Bft)
26.07.2015 16:58 21,5 C 20,0 C 53 % 0 lf 1007,9 hPa 0,0 l/m 0 min 0 min 156 W/m 18,8 km/h (3 Bft)
26.07.2015 17:00 21,4 C 20,0 C 53 % 0 lf 1007,9 hPa 0,0 l/m 0 min 0 min 154 W/m 14,6 km/h (3 Bft)
26.07.2015 17:02 21,4 C 20,0 C 54 % 0 lf 1007,8 hPa 0,0 l/m 0 min 0 min 150 W/m 10,5 km/h (2 Bft)
26.07.2015 17:04 21,4 C 20,0 C 54 % 0 lf 1007,8 hPa 0,0 l/m 0 min 0 min 144 W/m 18,8 km/h (3 Bft)
26.07.2015 17:06 21,4 C 19,4 C 54 % 0 lf 1007,8 hPa 0,0 l/m 0 min 0 min 137 W/m 16,7 km/h (3 Bft)
26.07.2015 17:08 21,3 C 19,4 C 54 % 0 lf 1007,8 hPa 0,0 l/m 0 min 0 min 132 W/m 16,7 km/h (3 Bft)
26.07.2015 17:10 21,3 C 19,4 C 54 % 0 lf 1007,8 hPa 0,0 l/m 0 min 0 min 128 W/m 16,7 km/h (3 Bft)
26.07.2015 17:12 21,3 C 19,4 C 53 % 0 lf 1007,8 hPa 0,0 l/m 0 min 0 min 127 W/m 18,8 km/h (3 Bft)
26.07.2015 17:14 21,2 C 19,4 C 53 % 0 lf 1007,8 hPa 0,0 l/m 0 min 0 min 123 W/m 20,9 km/h (4 Bft)
26.07.2015 17:16 21,2 C 18,9 C 53 % 0 lf 1007,8 hPa 0,0 l/m 0 min 0 min 117 W/m 20,9 km/h (4 Bft)
26.07.2015 17:18 21,2 C 18,9 C 53 % 1 lf 1007,8 hPa 0,0 l/m 0 min 2 min 112 W/m 16,7 km/h (3 Bft)
26.07.2015 17:20 21,1 C 18,9 C 54 % 0 lf 1007,8 hPa 0,0 l/m 0 min 0 min 111 W/m 14,6 km/h (3 Bft)
26.07.2015 17:22 21,1 C 18,9 C 55 % 0 lf 1007,7 hPa 0,0 l/m 0 min 0 min 114 W/m 12,6 km/h (3 Bft)
26.07.2015 17:24 21,0 C 18,9 C 55 % 2 lf 1007,7 hPa 0,0 l/m 0 min 2 min 113 W/m 16,7 km/h (3 Bft)
26.07.2015 17:26 21,0 C 18,3 C 55 % 0 lf 1007,7 hPa 0,0 l/m 0 min 2 min 109 W/m 16,7 km/h (3 Bft)
26.07.2015 17:28 20,9 C 18,3 C 55 % 1 lf 1007,7 hPa 0,0 l/m 0 min 0 min 104 W/m 23,0 km/h (4 Bft)
26.07.2015 17:30 20,9 C 18,3 C 55 % 1 lf 1007,7 hPa 0,0 l/m 0 min 2 min 98 W/m 20,9 km/h (4 Bft)
26.07.2015 17:32 20,8 C 18,3 C 55 % 1 lf 1007,7 hPa 0,0 l/m 0 min 2 min 95 W/m 14,6 km/h (3 Bft)
26.07.2015 17:34 20,8 C 18,3 C 56 % 0 lf 1007,6 hPa 0,0 l/m 0 min 2 min 92 W/m 16,7 km/h (3 Bft)
26.07.2015 17:36 20,7 C 18,3 C 56 % 1 lf 1007,6 hPa 0,0 l/m 0 min 0 min 89 W/m 16,7 km/h (3 Bft)
26.07.2015 17:38 20,7 C 18,3 C 56 % 0 lf 1007,5 hPa 0,0 l/m 0 min 2 min 84 W/m 14,6 km/h (3 Bft)
26.07.2015 17:40 20,7 C 18,3 C 56 % 0 lf 1007,5 hPa 0,0 l/m 0 min 0 min 83 W/m 12,6 km/h (3 Bft)
26.07.2015 17:42 20,6 C 18,3 C 57 % 0 lf 1007,5 hPa 0,0 l/m 0 min 0 min 80 W/m 8,4 km/h (2 Bft)
26.07.2015 17:44 20,6 C 18,3 C 56 % 0 lf 1007,5 hPa 0,0 l/m 0 min 0 min 77 W/m 10,5 km/h (2 Bft)
26.07.2015 17:46 20,6 C 18,3 C 56 % 0 lf 1007,5 hPa 0,0 l/m 0 min 0 min 75 W/m 23,0 km/h (4 Bft)
26.07.2015 17:48 20,6 C 18,3 C 56 % 0 lf 1007,5 hPa 0,0 l/m 0 min 2 min 71 W/m 29,3 km/h (5 Bft)
26.07.2015 17:50 20,5 C 17,8 C 56 % 3 lf 1007,6 hPa 0,0 l/m 0 min 2 min 67 W/m 16,7 km/h (3 Bft)
26.07.2015 17:52 20,4 C 17,2 C 58 % 15 lf 1007,6 hPa 0,0 l/m 0 min 2 min 63 W/m 23,0 km/h (4 Bft)
26.07.2015 17:54 20,4 C 16,1 C 59 % 12 lf 1007,5 hPa 0,0 l/m 0 min 2 min 63 W/m 16,7 km/h (3 Bft)
26.07.2015 17:56 20,3 C 16,1 C 59 % 0 lf 1007,4 hPa 0,0 l/m 0 min 2 min 62 W/m 14,6 km/h (3 Bft)
26.07.2015 17:58 20,2 C 16,1 C 59 % 2 lf 1007,4 hPa 0,0 l/m 0 min 0 min 62 W/m 12,6 km/h (3 Bft)
26.07.2015 18:00 20,1 C 15,6 C 60 % 8 lf 1007,5 hPa 0,0 l/m 0 min 2 min 62 W/m 12,6 km/h (3 Bft)
26.07.2015 18:02 20,0 C 15,0 C 60 % 3 lf 1007,4 hPa 0,0 l/m 0 min 2 min 56 W/m 14,6 km/h (3 Bft)
26.07.2015 18:05 19,9 C 15,0 C 62 % 14 lf 1007,4 hPa 0,0 l/m 0 min 2 min 49 W/m 12,6 km/h (3 Bft)
26.07.2015 18:10 19,8 C 14,4 C 63 % 15 lf 1007,5 hPa 0,0 l/m 0 min 2 min 49 W/m 12,6 km/h (3 Bft)
26.07.2015 18:12 19,7 C 14,4 C 64 % 15 lf 1007,5 hPa 0,0 l/m 0 min 2 min 45 W/m 8,4 km/h (2 Bft)
26.07.2015 18:14 19,7 C 13,9 C 64 % 15 lf 1007,4 hPa 0,0 l/m 0 min 2 min 49 W/m 8,4 km/h (2 Bft)
26.07.2015 18:16 19,7 C 13,9 C 65 % 15 lf 1007,4 hPa 0,0 l/m 0 min 2 min 51 W/m 8,4 km/h (2 Bft)
26.07.2015 18:18 19,6 C 13,9 C 65 % 15 lf 1007,5 hPa 0,0 l/m 0 min 2 min 48 W/m 10,5 km/h (2 Bft)
26.07.2015 18:20 19,6 C 13,9 C 66 % 15 lf 1007,5 hPa 0,0 l/m 0 min 2 min 45 W/m 8,4 km/h (2 Bft)
26.07.2015 18:22 19,5 C 13,9 C 66 % 15 lf 1007,4 hPa 0,0 l/m 0 min 2 min 45 W/m 6,3 km/h (2 Bft)
26.07.2015 18:24 19,4 C 13,9 C 67 % 15 lf 1007,4 hPa 0,0 l/m 0 min 2 min 46 W/m 10,5 km/h (2 Bft)
26.07.2015 18:26 19,3 C 13,9 C 68 % 15 lf 1007,4 hPa 0,0 l/m 0 min 2 min 48 W/m 8,4 km/h (2 Bft)
26.07.2015 18:28 19,3 C 13,9 C 69 % 15 lf 1007,4 hPa 0,2 l/m 0 min 2 min 49 W/m 10,5 km/h (2 Bft)
26.07.2015 18:30 19,2 C 13,9 C 69 % 15 lf 1007,3 hPa 0,0 l/m 0 min 2 min 51 W/m 10,5 km/h (2 Bft)
26.07.2015 18:32 19,1 C 13,9 C 70 % 15 lf 1007,5 hPa 0,0 l/m 0 min 2 min 49 W/m 6,3 km/h (2 Bft)
26.07.2015 18:34 19,1 C 13,9 C 70 % 15 lf 1007,5 hPa 0,0 l/m 0 min 2 min 45 W/m 18,8 km/h (3 Bft)
26.07.2015 18:36 18,9 C 13,9 C 71 % 15 lf 1007,5 hPa 0,0 l/m 0 min 2 min 43 W/m 20,9 km/h (4 Bft)
26.07.2015 18:38 18,8 C 13,3 C 72 % 15 lf 1007,5 hPa 0,2 l/m 0 min 2 min 40 W/m 10,5 km/h (2 Bft)
26.07.2015 18:40 18,7 C 13,9 C 73 % 15 lf 1007,5 hPa 0,0 l/m 0 min 2 min 35 W/m 8,4 km/h (2 Bft)
26.07.2015 18:42 18,6 C 13,9 C 73 % 15 lf 1007,5 hPa 0,0 l/m 0 min 2 min 37 W/m 10,5 km/h (2 Bft)
26.07.2015 18:44 18,4 C 13,3 C 74 % 15 lf 1007,4 hPa 0,0 l/m 0 min 2 min 33 W/m 6,3 km/h (2 Bft)
26.07.2015 18:46 18,3 C 13,3 C 74 % 15 lf 1007,5 hPa 0,0 l/m 0 min 2 min 27 W/m 10,5 km/h (2 Bft)
26.07.2015 18:48 18,2 C 13,3 C 74 % 15 lf 1007,5 hPa 0,0 l/m 0 min 2 min 25 W/m 12,6 km/h (3 Bft)
26.07.2015 18:50 18,1 C 13,3 C 75 % 15 lf 1007,5 hPa 0,2 l/m 0 min 2 min 25 W/m 12,6 km/h (3 Bft)
26.07.2015 18:52 18,0 C 13,3 C 76 % 15 lf 1007,5 hPa 0,0 l/m 0 min 2 min 25 W/m 10,5 km/h (2 Bft)
26.07.2015 18:54 17,8 C 13,3 C 76 % 15 lf 1007,5 hPa 0,0 l/m 0 min 2 min 24 W/m 6,3 km/h (2 Bft)
26.07.2015 18:56 17,7 C 13,3 C 77 % 15 lf 1007,5 hPa 0,2 l/m 0 min 2 min 23 W/m 8,4 km/h (2 Bft)
26.07.2015 18:58 17,7 C 13,3 C 77 % 15 lf 1007,5 hPa 0,0 l/m 0 min 2 min 23 W/m 10,5 km/h (2 Bft)
26.07.2015 19:00 17,6 C 13,3 C 77 % 15 lf 1007,5 hPa 0,0 l/m 0 min 2 min 22 W/m 8,4 km/h (2 Bft)
26.07.2015 19:02 17,5 C 13,3 C 78 % 15 lf 1007,5 hPa 0,0 l/m 0 min 2 min 20 W/m 6,3 km/h (2 Bft)
26.07.2015 19:04 17,4 C 13,3 C 78 % 15 lf 1007,6 hPa 0,2 l/m 0 min 2 min 18 W/m 12,6 km/h (3 Bft)
26.07.2015 19:06 17,3 C 13,3 C 79 % 15 lf 1007,6 hPa 0,0 l/m 0 min 2 min 17 W/m 12,6 km/h (3 Bft)
26.07.2015 19:08 17,2 C 13,3 C 79 % 15 lf 1007,6 hPa 0,2 l/m 0 min 2 min 20 W/m 8,4 km/h (2 Bft)
26.07.2015 19:10 17,1 C 13,3 C 80 % 15 lf 1007,6 hPa 0,0 l/m 0 min 2 min 21 W/m 8,4 km/h (2 Bft)
26.07.2015 19:12 17,0 C 13,3 C 80 % 15 lf 1007,5 hPa 0,2 l/m 0 min 2 min 24 W/m 8,4 km/h (2 Bft)
26.07.2015 19:14 16,9 C 13,3 C 80 % 15 lf 1007,5 hPa 0,0 l/m 0 min 2 min 27 W/m 10,5 km/h (2 Bft)
26.07.2015 19:16 16,8 C 12,8 C 81 % 15 lf 1007,3 hPa 0,0 l/m 0 min 2 min 29 W/m 14,6 km/h (3 Bft)
26.07.2015 19:18 16,8 C 12,8 C 81 % 15 lf 1007,4 hPa 0,2 l/m 0 min 2 min 31 W/m 8,4 km/h (2 Bft)
26.07.2015 19:20 16,7 C 13,3 C 82 % 15 lf 1007,4 hPa 0,0 l/m 0 min 2 min 33 W/m 10,5 km/h (2 Bft)
26.07.2015 19:22 16,6 C 13,3 C 82 % 15 lf 1007,3 hPa 0,0 l/m 0 min 2 min 34 W/m 12,6 km/h (3 Bft)
26.07.2015 19:24 16,5 C 13,3 C 82 % 15 lf 1007,3 hPa 0,0 l/m 0 min 2 min 33 W/m 12,6 km/h (3 Bft)
26.07.2015 19:26 16,4 C 12,8 C 83 % 15 lf 1007,3 hPa 0,2 l/m 0 min 2 min 33 W/m 8,4 km/h (2 Bft)
26.07.2015 19:28 16,3 C 13,3 C 83 % 15 lf 1007,2 hPa 0,0 l/m 0 min 2 min 32 W/m 6,3 km/h (2 Bft)
26.07.2015 19:30 16,3 C 13,3 C 83 % 15 lf 1007,2 hPa 0,0 l/m 0 min 2 min 30 W/m 4,2 km/h (1 Bft)
26.07.2015 19:32 16,2 C 13,3 C 84 % 15 lf 1007,2 hPa 0,0 l/m 0 min 2 min 26 W/m 6,3 km/h (2 Bft)
26.07.2015 19:34 16,2 C 13,3 C 84 % 15 lf 1007,1 hPa 0,0 l/m 0 min 2 min 25 W/m 6,3 km/h (2 Bft)
26.07.2015 19:36 16,2 C 13,3 C 84 % 15 lf 1007,1 hPa 0,0 l/m 0 min 2 min 26 W/m 6,3 km/h (2 Bft)
26.07.2015 19:38 16,1 C 13,3 C 84 % 15 lf 1007,0 hPa 0,0 l/m 0 min 2 min 22 W/m 10,5 km/h (2 Bft)
26.07.2015 19:40 16,1 C 13,3 C 85 % 15 lf 1007,0 hPa 0,0 l/m 0 min 2 min 19 W/m 6,3 km/h (2 Bft)
26.07.2015 19:42 16,1 C 13,3 C 85 % 15 lf 1007,0 hPa 0,0 l/m 0 min 0 min 18 W/m 6,3 km/h (2 Bft)
26.07.2015 19:44 16,0 C 13,3 C 85 % 15 lf 1007,0 hPa 0,0 l/m 0 min 0 min 16 W/m 6,3 km/h (2 Bft)
26.07.2015 19:46 16,0 C 13,3 C 85 % 15 lf 1007,0 hPa 0,0 l/m 0 min 0 min 13 W/m 4,2 km/h (1 Bft)
26.07.2015 19:48 15,9 C 13,3 C 85 % 15 lf 1006,9 hPa 0,0 l/m 0 min 0 min 11 W/m 4,2 km/h (1 Bft)
26.07.2015 19:50 15,9 C 13,3 C 85 % 15 lf 1006,9 hPa 0,0 l/m 0 min 2 min 11 W/m 6,3 km/h (2 Bft)
26.07.2015 19:52 15,9 C 13,3 C 86 % 15 lf 1007,0 hPa 0,0 l/m 0 min 2 min 11 W/m 4,2 km/h (1 Bft)
26.07.2015 19:54 15,9 C 13,3 C 86 % 15 lf 1006,9 hPa 0,0 l/m 0 min 2 min 9 W/m 6,3 km/h (2 Bft)
26.07.2015 19:56 15,9 C 13,3 C 86 % 15 lf 1006,8 hPa 0,0 l/m 0 min 2 min 11 W/m 8,4 km/h (2 Bft)
26.07.2015 19:58 15,8 C 13,3 C 86 % 15 lf 1006,8 hPa 0,0 l/m 0 min 0 min 12 W/m 10,5 km/h (2 Bft)
26.07.2015 20:00 15,8 C 13,3 C 87 % 15 lf 1006,8 hPa 0,0 l/m 0 min 2 min 12 W/m 8,4 km/h (2 Bft)
26.07.2015 20:02 15,8 C 13,3 C 87 % 15 lf 1006,8 hPa 0,0 l/m 0 min 2 min 11 W/m 6,3 km/h (2 Bft)
26.07.2015 20:04 15,8 C 13,3 C 87 % 15 lf 1006,7 hPa 0,0 l/m 0 min 2 min 11 W/m 8,4 km/h (2 Bft)
26.07.2015 20:06 15,8 C 13,3 C 87 % 15 lf 1006,7 hPa 0,0 l/m 0 min 2 min 11 W/m 4,2 km/h (1 Bft)
26.07.2015 20:08 15,8 C 13,3 C 87 % 15 lf 1006,7 hPa 0,0 l/m 0 min 0 min 11 W/m 8,4 km/h (2 Bft)
26.07.2015 20:10 15,7 C 13,3 C 87 % 15 lf 1006,7 hPa 0,0 l/m 0 min 0 min 11 W/m 6,3 km/h (2 Bft)
26.07.2015 20:12 15,7 C 13,3 C 87 % 15 lf 1006,6 hPa 0,0 l/m 0 min 2 min 11 W/m 6,3 km/h (2 Bft)
26.07.2015 20:14 15,7 C 13,3 C 88 % 15 lf 1006,6 hPa 0,0 l/m 0 min 0 min 12 W/m 6,3 km/h (2 Bft)
26.07.2015 20:16 15,7 C 13,3 C 88 % 15 lf 1006,6 hPa 0,0 l/m 0 min 2 min 13 W/m 6,3 km/h (2 Bft)
26.07.2015 20:18 15,7 C 13,3 C 88 % 15 lf 1006,6 hPa 0,2 l/m 0 min 2 min 16 W/m 8,4 km/h (2 Bft)
26.07.2015 20:20 15,7 C 13,3 C 88 % 15 lf 1006,5 hPa 0,0 l/m 0 min 2 min 17 W/m 6,3 km/h (2 Bft)
26.07.2015 20:22 15,7 C 13,3 C 88 % 15 lf 1006,5 hPa 0,0 l/m 0 min 2 min 24 W/m 4,2 km/h (1 Bft)
26.07.2015 20:24 15,7 C 13,3 C 88 % 15 lf 1006,5 hPa 0,0 l/m 0 min 2 min 29 W/m 6,3 km/h (2 Bft)
26.07.2015 20:26 15,7 C 13,9 C 89 % 15 lf 1006,4 hPa 0,0 l/m 0 min 2 min 28 W/m 8,4 km/h (2 Bft)
26.07.2015 20:28 15,6 C 13,9 C 89 % 15 lf 1006,4 hPa 0,0 l/m 0 min 2 min 25 W/m 6,3 km/h (2 Bft)
26.07.2015 20:30 15,6 C 13,3 C 89 % 15 lf 1006,3 hPa 0,0 l/m 0 min 0 min 23 W/m 10,5 km/h (2 Bft)
26.07.2015 20:32 15,6 C 13,3 C 89 % 15 lf 1006,2 hPa 0,0 l/m 0 min 0 min 20 W/m 8,4 km/h (2 Bft)
26.07.2015 20:34 15,6 C 13,3 C 89 % 15 lf 1006,2 hPa 0,0 l/m 0 min 0 min 19 W/m 6,3 km/h (2 Bft)
26.07.2015 20:36 15,6 C 13,3 C 89 % 15 lf 1006,1 hPa 0,0 l/m 0 min 0 min 16 W/m 6,3 km/h (2 Bft)
26.07.2015 20:38 15,6 C 13,3 C 90 % 15 lf 1006,1 hPa 0,0 l/m 0 min 0 min 16 W/m 4,2 km/h (1 Bft)
26.07.2015 20:40 15,5 C 13,3 C 90 % 15 lf 1006,1 hPa 0,0 l/m 0 min 0 min 14 W/m 6,3 km/h (2 Bft)
26.07.2015 20:42 15,5 C 13,3 C 90 % 15 lf 1006,1 hPa 0,0 l/m 0 min 0 min 13 W/m 4,2 km/h (1 Bft)
26.07.2015 20:44 15,5 C 13,3 C 90 % 15 lf 1006,1 hPa 0,0 l/m 0 min 0 min 12 W/m 8,4 km/h (2 Bft)
26.07.2015 20:46 15,4 C 13,3 C 90 % 15 lf 1006,0 hPa 0,0 l/m 0 min 0 min 12 W/m 8,4 km/h (2 Bft)
26.07.2015 20:48 15,4 C 13,3 C 90 % 15 lf 1005,9 hPa 0,0 l/m 0 min 0 min 12 W/m 4,2 km/h (1 Bft)
26.07.2015 20:50 15,4 C 13,3 C 90 % 15 lf 1005,8 hPa 0,0 l/m 0 min 0 min 12 W/m 4,2 km/h (1 Bft)
26.07.2015 20:52 15,4 C 13,3 C 90 % 15 lf 1005,9 hPa 0,0 l/m 0 min 0 min 12 W/m 6,3 km/h (2 Bft)
26.07.2015 20:54 15,4 C 13,3 C 90 % 15 lf 1005,8 hPa 0,0 l/m 0 min 0 min 12 W/m 6,3 km/h (2 Bft)
26.07.2015 20:56 15,4 C 13,3 C 90 % 15 lf 1005,8 hPa 0,0 l/m 0 min 0 min 11 W/m 8,4 km/h (2 Bft)
26.07.2015 20:58 15,4 C 13,3 C 90 % 15 lf 1005,7 hPa 0,0 l/m 0 min 0 min 11 W/m 8,4 km/h (2 Bft)
26.07.2015 21:00 15,3 C 13,3 C 90 % 15 lf 1005,8 hPa 0,0 l/m 0 min 0 min 9 W/m 6,3 km/h (2 Bft)
26.07.2015 21:02 15,3 C 13,3 C 90 % 15 lf 1005,7 hPa 0,0 l/m 0 min 0 min 9 W/m 6,3 km/h (2 Bft)
26.07.2015 21:04 15,3 C 13,3 C 90 % 15 lf 1005,7 hPa 0,0 l/m 0 min 0 min 9 W/m 8,4 km/h (2 Bft)
26.07.2015 21:06 15,3 C 13,3 C 91 % 15 lf 1005,7 hPa 0,0 l/m 0 min 0 min 9 W/m 10,5 km/h (2 Bft)
26.07.2015 21:08 15,3 C 13,3 C 91 % 15 lf 1005,7 hPa 0,0 l/m 0 min 0 min 9 W/m 10,5 km/h (2 Bft)
26.07.2015 21:10 15,3 C 13,3 C 91 % 15 lf 1005,6 hPa 0,0 l/m 0 min 0 min 7 W/m 12,6 km/h (3 Bft)
26.07.2015 21:12 15,2 C 13,3 C 91 % 15 lf 1005,7 hPa 0,0 l/m 0 min 0 min 6 W/m 10,5 km/h (2 Bft)
26.07.2015 21:14 15,2 C 13,3 C 91 % 15 lf 1005,6 hPa 0,0 l/m 0 min 0 min 5 W/m 10,5 km/h (2 Bft)
26.07.2015 21:16 15,2 C 13,3 C 91 % 15 lf 1005,6 hPa 0,0 l/m 0 min 0 min 3 W/m 6,3 km/h (2 Bft)
26.07.2015 21:18 15,2 C 13,3 C 91 % 15 lf 1005,6 hPa 0,0 l/m 0 min 0 min 0 W/m 8,4 km/h (2 Bft)
26.07.2015 21:20 15,1 C 13,3 C 91 % 15 lf 1005,5 hPa 0,0 l/m 0 min 0 min 0 W/m 10,5 km/h (2 Bft)
26.07.2015 21:22 15,1 C 13,3 C 91 % 15 lf 1005,4 hPa 0,0 l/m 0 min 0 min 0 W/m 6,3 km/h (2 Bft)
26.07.2015 21:24 15,1 C 12,8 C 91 % 15 lf 1005,4 hPa 0,0 l/m 0 min 0 min 0 W/m 8,4 km/h (2 Bft)
26.07.2015 21:26 15,1 C 12,8 C 91 % 15 lf 1005,3 hPa 0,0 l/m 0 min 0 min 0 W/m 8,4 km/h (2 Bft)
26.07.2015 21:28 15,0 C 12,8 C 91 % 15 lf 1005,4 hPa 0,0 l/m 0 min 0 min 0 W/m 12,6 km/h (3 Bft)
26.07.2015 21:30 15,0 C 12,8 C 91 % 15 lf 1005,3 hPa 0,0 l/m 0 min 0 min 0 W/m 8,4 km/h (2 Bft)
26.07.2015 21:32 15,0 C 12,8 C 91 % 15 lf 1005,2 hPa 0,0 l/m 0 min 0 min 0 W/m 10,5 km/h (2 Bft)
26.07.2015 21:34 14,9 C 12,8 C 91 % 15 lf 1005,2 hPa 0,0 l/m 0 min 0 min 0 W/m 8,4 km/h (2 Bft)
26.07.2015 21:36 14,9 C 12,8 C 91 % 15 lf 1005,2 hPa 0,0 l/m 0 min 0 min 0 W/m 10,5 km/h (2 Bft)
26.07.2015 21:38 14,9 C 12,8 C 91 % 15 lf 1005,3 hPa 0,0 l/m 0 min 0 min 0 W/m 10,5 km/h (2 Bft)
26.07.2015 21:40 14,9 C 12,8 C 91 % 15 lf 1005,2 hPa 0,0 l/m 0 min 0 min 0 W/m 14,6 km/h (3 Bft)
26.07.2015 21:42 14,9 C 12,8 C 91 % 15 lf 1005,2 hPa 0,0 l/m 0 min 0 min 0 W/m 18,8 km/h (3 Bft)
26.07.2015 21:44 14,8 C 12,8 C 91 % 15 lf 1005,2 hPa 0,0 l/m 0 min 0 min 0 W/m 20,9 km/h (4 Bft)
26.07.2015 21:46 14,8 C 12,8 C 91 % 15 lf 1005,1 hPa 0,0 l/m 0 min 0 min 0 W/m 20,9 km/h (4 Bft)
26.07.2015 21:48 14,8 C 12,8 C 91 % 15 lf 1005,1 hPa 0,0 l/m 0 min 0 min 0 W/m 12,6 km/h (3 Bft)
26.07.2015 21:50 14,8 C 12,8 C 91 % 15 lf 1005,1 hPa 0,0 l/m 0 min 0 min 0 W/m 8,4 km/h (2 Bft)
26.07.2015 21:52 14,7 C 12,8 C 91 % 15 lf 1005,1 hPa 0,0 l/m 0 min 0 min 0 W/m 12,6 km/h (3 Bft)
26.07.2015 21:54 14,7 C 12,8 C 91 % 15 lf 1005,0 hPa 0,0 l/m 0 min 0 min 0 W/m 6,3 km/h (2 Bft)
26.07.2015 21:56 14,7 C 12,8 C 91 % 15 lf 1005,0 hPa 0,0 l/m 0 min 0 min 0 W/m 10,5 km/h (2 Bft)
26.07.2015 21:58 14,7 C 12,8 C 91 % 15 lf 1005,0 hPa 0,0 l/m 0 min 0 min 0 W/m 8,4 km/h (2 Bft)
26.07.2015 22:00 14,7 C 12,8 C 91 % 15 lf 1005,0 hPa 0,0 l/m 0 min 0 min 0 W/m 10,5 km/h (2 Bft)
26.07.2015 22:02 14,7 C 12,8 C 91 % 15 lf 1005,0 hPa 0,0 l/m 0 min 0 min 0 W/m 10,5 km/h (2 Bft)
26.07.2015 22:04 14,7 C 12,8 C 91 % 15 lf 1005,0 hPa 0,0 l/m 0 min 0 min 0 W/m 10,5 km/h (2 Bft)
26.07.2015 22:06 14,7 C 12,8 C 91 % 15 lf 1005,0 hPa 0,0 l/m 0 min 0 min 0 W/m 10,5 km/h (2 Bft)
26.07.2015 22:08 14,6 C 12,8 C 91 % 15 lf 1005,0 hPa 0,0 l/m 0 min 2 min 0 W/m 10,5 km/h (2 Bft)
26.07.2015 22:10 14,6 C 12,8 C 91 % 15 lf 1005,0 hPa 0,2 l/m 0 min 2 min 0 W/m 18,8 km/h (3 Bft)
26.07.2015 22:12 14,6 C 12,8 C 91 % 15 lf 1005,0 hPa 0,2 l/m 0 min 2 min 0 W/m 14,6 km/h (3 Bft)
26.07.2015 22:14 14,6 C 12,8 C 91 % 15 lf 1004,9 hPa 0,0 l/m 0 min 2 min 0 W/m 8,4 km/h (2 Bft)
26.07.2015 22:16 14,6 C 12,8 C 91 % 15 lf 1004,9 hPa 0,0 l/m 0 min 2 min 0 W/m 6,3 km/h (2 Bft)
26.07.2015 22:18 14,6 C 12,8 C 91 % 15 lf 1004,9 hPa 0,0 l/m 0 min 2 min 0 W/m 10,5 km/h (2 Bft)
26.07.2015 22:20 14,6 C 12,8 C 91 % 15 lf 1004,9 hPa 0,0 l/m 0 min 0 min 0 W/m 12,6 km/h (3 Bft)
26.07.2015 22:22 14,6 C 12,8 C 91 % 15 lf 1004,8 hPa 0,0 l/m 0 min 2 min 0 W/m 8,4 km/h (2 Bft)
26.07.2015 22:24 14,6 C 12,8 C 91 % 15 lf 1004,8 hPa 0,0 l/m 0 min 0 min 0 W/m 8,4 km/h (2 Bft)
26.07.2015 22:26 14,5 C 12,8 C 91 % 15 lf 1004,7 hPa 0,0 l/m 0 min 0 min 0 W/m 8,4 km/h (2 Bft)
26.07.2015 22:28 14,5 C 12,2 C 91 % 15 lf 1004,7 hPa 0,0 l/m 0 min 0 min 0 W/m 8,4 km/h (2 Bft)
26.07.2015 22:30 14,4 C 12,2 C 91 % 15 lf 1004,6 hPa 0,0 l/m 0 min 0 min 0 W/m 12,6 km/h (3 Bft)
26.07.2015 22:32 14,4 C 12,2 C 91 % 15 lf 1004,7 hPa 0,0 l/m 0 min 0 min 0 W/m 14,6 km/h (3 Bft)
26.07.2015 22:34 14,4 C 12,2 C 91 % 15 lf 1004,6 hPa 0,0 l/m 0 min 0 min 0 W/m 18,8 km/h (3 Bft)
26.07.2015 22:36 14,3 C 12,2 C 91 % 15 lf 1004,7 hPa 0,0 l/m 0 min 0 min 0 W/m 16,7 km/h (3 Bft)
26.07.2015 22:38 14,3 C 12,2 C 91 % 15 lf 1004,6 hPa 0,0 l/m 0 min 0 min 0 W/m 23,0 km/h (4 Bft)
26.07.2015 22:40 14,2 C 12,2 C 91 % 14 lf 1004,6 hPa 0,0 l/m 0 min 0 min 0 W/m 25,1 km/h (4 Bft)
26.07.2015 22:42 14,2 C 12,2 C 91 % 14 lf 1004,5 hPa 0,0 l/m 0 min 0 min 0 W/m 20,9 km/h (4 Bft)
26.07.2015 22:44 14,2 C 12,2 C 91 % 13 lf 1004,4 hPa 0,0 l/m 0 min 0 min 0 W/m 29,3 km/h (5 Bft)
26.07.2015 22:46 14,2 C 12,2 C 91 % 10 lf 1004,4 hPa 0,0 l/m 0 min 0 min 0 W/m 23,0 km/h (4 Bft)
26.07.2015 22:48 14,2 C 12,2 C 90 % 7 lf 1004,3 hPa 0,0 l/m 0 min 0 min 0 W/m 18,8 km/h (3 Bft)
26.07.2015 22:50 14,2 C 12,2 C 90 % 6 lf 1004,2 hPa 0,0 l/m 0 min 0 min 0 W/m 14,6 km/h (3 Bft)
26.07.2015 22:52 14,2 C 12,2 C 90 % 3 lf 1004,2 hPa 0,0 l/m 0 min 0 min 0 W/m 14,6 km/h (3 Bft)
26.07.2015 22:54 14,2 C 12,2 C 90 % 3 lf 1004,1 hPa 0,0 l/m 0 min 0 min 0 W/m 14,6 km/h (3 Bft)
26.07.2015 22:56 14,2 C 12,2 C 90 % 2 lf 1004,1 hPa 0,0 l/m 0 min 0 min 0 W/m 18,8 km/h (3 Bft)
26.07.2015 22:58 14,2 C 12,2 C 90 % 2 lf 1004,1 hPa 0,0 l/m 0 min 0 min 0 W/m 18,8 km/h (3 Bft)
26.07.2015 23:00 14,2 C 12,2 C 90 % 1 lf 1004,1 hPa 0,0 l/m 0 min 0 min 0 W/m 14,6 km/h (3 Bft)
26.07.2015 23:02 14,2 C 12,2 C 90 % 1 lf 1004,0 hPa 0,0 l/m 0 min 2 min 0 W/m 16,7 km/h (3 Bft)
26.07.2015 23:04 14,2 C 12,2 C 90 % 1 lf 1004,0 hPa 0,0 l/m 0 min 0 min 0 W/m 20,9 km/h (4 Bft)
26.07.2015 23:06 14,2 C 12,2 C 90 % 1 lf 1004,0 hPa 0,0 l/m 0 min 0 min 0 W/m 16,7 km/h (3 Bft)
26.07.2015 23:08 14,2 C 12,2 C 90 % 1 lf 1003,9 hPa 0,0 l/m 0 min 0 min 0 W/m 20,9 km/h (4 Bft)
26.07.2015 23:10 14,2 C 12,2 C 90 % 1 lf 1003,9 hPa 0,0 l/m 0 min 0 min 0 W/m 25,1 km/h (4 Bft)
26.07.2015 23:12 14,2 C 12,2 C 90 % 1 lf 1003,9 hPa 0,0 l/m 0 min 0 min 0 W/m 20,9 km/h (4 Bft)
26.07.2015 23:14 14,2 C 12,2 C 90 % 0 lf 1003,9 hPa 0,0 l/m 0 min 0 min 0 W/m 16,7 km/h (3 Bft)
26.07.2015 23:16 14,2 C 12,2 C 90 % 0 lf 1003,8 hPa 0,0 l/m 0 min 0 min 0 W/m 25,1 km/h (4 Bft)
26.07.2015 23:18 14,2 C 12,2 C 90 % 0 lf 1003,8 hPa 0,0 l/m 0 min 0 min 0 W/m 18,8 km/h (3 Bft)
26.07.2015 23:20 14,2 C 12,2 C 90 % 0 lf 1003,7 hPa 0,0 l/m 0 min 0 min 0 W/m 14,6 km/h (3 Bft)
26.07.2015 23:22 14,2 C 12,2 C 90 % 0 lf 1003,7 hPa 0,0 l/m 0 min 0 min 0 W/m 14,6 km/h (3 Bft)
26.07.2015 23:24 14,2 C 12,2 C 90 % 0 lf 1003,6 hPa 0,0 l/m 0 min 0 min 0 W/m 14,6 km/h (3 Bft)
26.07.2015 23:26 14,2 C 12,2 C 90 % 0 lf 1003,6 hPa 0,0 l/m 0 min 0 min 0 W/m 16,7 km/h (3 Bft)
26.07.2015 23:28 14,2 C 12,2 C 90 % 0 lf 1003,5 hPa 0,0 l/m 0 min 0 min 0 W/m 20,9 km/h (4 Bft)
26.07.2015 23:30 14,2 C 12,2 C 90 % 0 lf 1003,5 hPa 0,0 l/m 0 min 0 min 0 W/m 20,9 km/h (4 Bft)
26.07.2015 23:32 14,2 C 12,2 C 90 % 0 lf 1003,4 hPa 0,0 l/m 0 min 0 min 0 W/m 12,6 km/h (3 Bft)
26.07.2015 23:34 14,2 C 12,2 C 90 % 0 lf 1003,5 hPa 0,0 l/m 0 min 0 min 0 W/m 18,8 km/h (3 Bft)
26.07.2015 23:36 14,2 C 11,7 C 89 % 0 lf 1003,4 hPa 0,0 l/m 0 min 0 min 0 W/m 23,0 km/h (4 Bft)
26.07.2015 23:38 14,2 C 11,7 C 89 % 0 lf 1003,3 hPa 0,0 l/m 0 min 0 min 0 W/m 20,9 km/h (4 Bft)
26.07.2015 23:40 14,2 C 12,2 C 89 % 0 lf 1003,2 hPa 0,0 l/m 0 min 0 min 0 W/m 25,1 km/h (4 Bft)
26.07.2015 23:42 14,2 C 12,2 C 89 % 0 lf 1003,2 hPa 0,0 l/m 0 min 0 min 0 W/m 18,8 km/h (3 Bft)
26.07.2015 23:44 14,2 C 12,2 C 89 % 0 lf 1003,2 hPa 0,0 l/m 0 min 0 min 0 W/m 18,8 km/h (3 Bft)
26.07.2015 23:46 14,2 C 12,2 C 89 % 0 lf 1003,1 hPa 0,0 l/m 0 min 0 min 0 W/m 16,7 km/h (3 Bft)
26.07.2015 23:48 14,2 C 12,2 C 89 % 0 lf 1003,1 hPa 0,0 l/m 0 min 0 min 0 W/m 20,9 km/h (4 Bft)
26.07.2015 23:50 14,2 C 12,2 C 89 % 0 lf 1003,1 hPa 0,0 l/m 0 min 0 min 0 W/m 16,7 km/h (3 Bft)
26.07.2015 23:52 14,2 C 12,2 C 89 % 0 lf 1003,1 hPa 0,0 l/m 0 min 0 min 0 W/m 16,7 km/h (3 Bft)
26.07.2015 23:54 14,2 C 12,2 C 89 % 0 lf 1003,1 hPa 0,0 l/m 0 min 0 min 0 W/m 16,7 km/h (3 Bft)
26.07.2015 23:56 14,2 C 12,2 C 89 % 0 lf 1003,0 hPa 0,0 l/m 0 min 0 min 0 W/m 18,8 km/h (3 Bft)
26.07.2015 23:58 14,2 C 12,2 C 89 % 0 lf 1003,1 hPa 0,0 l/m 0 min 0 min 0 W/m 25,1 km/h (4 Bft)
_ Min-Zeit 06:26 05:48 15:14 00:00 23:56 - - - - 05:42
Minimum _ 9,5 C 8,3 C 48 % 0 lf 1003,0 hPa - - - - 4,2 km/h (1 Bft)
_ Max-Zeit 15:12 12:00 08:14 05:52 01:52 18:28 06:10 16:56 14:02 12:05
Maximum _ 22,9 C 25,6 C 97 % 15 lf 1016,3 hPa 0,2 l/m 2 min 2 min 1014 W/m 35,6 km/h
S-SW (5 Bft)
Durchschnitt _ 15,8 C 14,5 C 78 % 5 lf 1011,6 hPa #2,4 l/m #7:44 h #2:52 h 316 W/m 13,8 km/h (3 Bft)
© 2015 W. Hausmann